Observation data for Lake Alan Henry on 05/04/2021      Previous  Date  Next       Current Mesonet Observations  Soil Data  Daily Summary Page  Observations in Plain Language
KAHS 040500Z 36016KT 14/10 A2989 RMK A01 T01350099  RH  078%=      5-min Rain = 0
KAHS 040501Z 36014KT 14/10 A2989 RMK A01 T01360099  RH  078%=      5-min Rain = 0
KAHS 040502Z 36012G18KT 14/10 A2989 RMK A01 T01360099  RH  078%=      5-min Rain = 0
KAHS 040503Z 36015G20KT 14/10 A2989 RMK A01 T01350098  RH  078%=      5-min Rain = 0
KAHS 040504Z 35012KT 14/10 A2989 RMK A01 T01350098  RH  078%=      5-min Rain = 0
KAHS 040505Z 36012KT 14/10 A2989 RMK A01 T01350099  RH  078%=      5-min Rain = 0
KAHS 040506Z 36013KT 14/10 A2989 RMK A01 T01350098  RH  078%=      5-min Rain = 0
KAHS 040507Z 35012G17KT 14/10 A2989 RMK A01 T01350098  RH  078%=      5-min Rain = 0
KAHS 040508Z 36014KT 14/10 A2989 RMK A01 T01350098  RH  078%=      5-min Rain = 0
KAHS 040509Z 35012G19KT 14/10 A2989 RMK A01 T01350098  RH  078%=      5-min Rain = 0
KAHS 040510Z 35013KT 14/10 A2989 RMK A01 T01350098  RH  078%=      5-min Rain = 0
KAHS 040511Z 35014KT 14/10 A299 RMK A01 T01350098  RH  078%=      5-min Rain = 0
KAHS 040512Z 35013KT 14/10 A299 RMK A01 T01350098  RH  078%=      5-min Rain = 0
KAHS 040513Z 35013KT 14/10 A299 RMK A01 T01350098  RH  078%=      5-min Rain = 0
KAHS 040514Z 35011KT 14/10 A299 RMK A01 T01350098  RH  078%=      5-min Rain = 0
KAHS 040515Z 35009KT 13/10 A299 RMK A01 T01340098  RH  079%=      5-min Rain = 0
KAHS 040516Z 35009KT 13/10 A299 RMK A01 T01340098  RH  079%=      5-min Rain = 0
KAHS 040517Z 35010KT 13/10 A2989 RMK A01 T01330098  RH  079%=      5-min Rain = 0
KAHS 040518Z 35015KT 13/10 A2989 RMK A01 T01330098  RH  079%=      5-min Rain = 0
KAHS 040519Z 35013KT 13/10 A2989 RMK A01 T01330098  RH  079%=      5-min Rain = 0
KAHS 040520Z 35014G19KT 13/10 A2989 RMK A01 T01330098  RH  079%=      5-min Rain = 0
KAHS 040521Z 35013KT 13/10 A2989 RMK A01 T01330098  RH  079%=      5-min Rain = 0
KAHS 040522Z 35012KT 13/10 A2989 RMK A01 T01330098  RH  079%=      5-min Rain = 0
KAHS 040523Z 36013KT 13/10 A2989 RMK A01 T01330098  RH  079%=      5-min Rain = 0
KAHS 040524Z 36012KT 13/10 A2989 RMK A01 T01330098  RH  079%=      5-min Rain = 0
KAHS 040525Z 00011KT 13/10 A2989 RMK A01 T01330098  RH  079%=      5-min Rain = 0
KAHS 040526Z 36011KT 13/10 A299 RMK A01 T01330098  RH  080%=      5-min Rain = 0
KAHS 040527Z 35011KT 13/10 A299 RMK A01 T01330098  RH  080%=      5-min Rain = 0
KAHS 040528Z 01010KT 13/10 A299 RMK A01 T01320098  RH  080%=      5-min Rain = 0
KAHS 040529Z 01013G18KT 13/10 A299 RMK A01 T01320098  RH  080%=      5-min Rain = 0
KAHS 040530Z 00013KT 13/10 A299 RMK A01 T01330098  RH  080%=      5-min Rain = 0
KAHS 040531Z 36010G15KT 13/10 A299 RMK A01 T01330098  RH  080%=      5-min Rain = 0
KAHS 040532Z 00014KT 13/10 A299 RMK A01 T01330098  RH  080%=      5-min Rain = 0
KAHS 040533Z 01013G18KT 13/10 A299 RMK A01 T01330098  RH  080%=      5-min Rain = 0
KAHS 040534Z 00011KT 13/10 A2989 RMK A01 T01330098  RH  079%=      5-min Rain = 0
KAHS 040535Z 01010KT 13/10 A2989 RMK A01 T01330098  RH  080%=      5-min Rain = 0
KAHS 040536Z 01013KT 13/10 A2989 RMK A01 T01330099  RH  080%=      5-min Rain = 0
KAHS 040537Z 01012KT 13/10 A299 RMK A01 T01330099  RH  080%=      5-min Rain = 0
KAHS 040538Z 01014KT 13/10 A299 RMK A01 T01330099  RH  080%=      5-min Rain = 0
KAHS 040539Z 01013KT 13/10 A299 RMK A01 T01330098  RH  080%=      5-min Rain = 0
KAHS 040540Z 01015KT 13/10 A299 RMK A01 T01330098  RH  080%=      5-min Rain = 0
KAHS 040541Z 01013KT 13/10 A299 RMK A01 T01330099  RH  079%=      5-min Rain = 0
KAHS 040542Z 01013KT 13/10 A299 RMK A01 T01330099  RH  079%=      5-min Rain = 0
KAHS 040543Z 01014KT 13/10 A299 RMK A01 T01330099  RH  080%=      5-min Rain = 0
KAHS 040544Z 01013KT 13/10 A299 RMK A01 T01330099  RH  080%=      5-min Rain = 0
KAHS 040545Z 01013KT 13/10 A299 RMK A01 T01330099  RH  080%=      5-min Rain = 0
KAHS 040546Z 01011G16KT 13/10 A299 RMK A01 T01330099  RH  080%=      5-min Rain = 0
KAHS 040547Z 01014KT 13/10 A299 RMK A01 T01330099  RH  080%=      5-min Rain = 0
KAHS 040548Z 01011KT 13/10 A299 RMK A01 T01330099  RH  080%=      5-min Rain = 0
KAHS 040549Z 01009KT 13/10 A299 RMK A01 T01330100  RH  080%=      5-min Rain = 0
KAHS 040550Z 01013KT 13/10 A299 RMK A01 T01320100  RH  081%=      5-min Rain = 0
KAHS 040551Z 01014KT 13/10 A299 RMK A01 T01320100  RH  081%=      5-min Rain = 0
KAHS 040552Z 01011KT 13/10 A299 RMK A01 T01320100  RH  081%=      5-min Rain = 0
KAHS 040553Z 01010KT 13/10 A299 RMK A01 T01320099  RH  080%=      5-min Rain = 0
KAHS 040554Z 01010KT 13/10 A299 RMK A01 T01320100  RH  081%=      5-min Rain = 0
KAHS 040555Z 01009KT 13/10 A2991 RMK A01 T01320100  RH  081%=      5-min Rain = 0
KAHS 040556Z 01009KT 13/10 A2991 RMK A01 T01320100  RH  081%=      5-min Rain = 0
KAHS 040557Z 01010KT 13/10 A2991 RMK A01 T01310100  RH  081%=      5-min Rain = 0
KAHS 040558Z 01009G14KT 13/10 A299 RMK A01 T01310100  RH  081%=      5-min Rain = 0
KAHS 040559Z 01008KT 13/10 A299 RMK A01 T01310100  RH  081%=      5-min Rain = 0
KAHS 040600Z 01010KT 13/10 A299 RMK A01 T01310100  RH  082%=      5-min Rain = 0
KAHS 040601Z 01011KT 13/10 A299 RMK A01 T01310101  RH  082%=      5-min Rain = 0
KAHS 040602Z 01009KT 13/10 A299 RMK A01 T01310101  RH  082%=      5-min Rain = 0
KAHS 040603Z 01010KT 13/10 A299 RMK A01 T01310101  RH  082%=      5-min Rain = 0
KAHS 040604Z 01011KT 13/10 A2991 RMK A01 T01310101  RH  082%=      5-min Rain = 0
KAHS 040605Z 01012KT 13/10 A2991 RMK A01 T01310101  RH  082%=      5-min Rain = 0
KAHS 040606Z 00012KT 13/10 A2991 RMK A01 T01310101  RH  082%=      5-min Rain = 0
KAHS 040607Z 01013G18KT 13/10 A2991 RMK A01 T01310101  RH  082%=      5-min Rain = 0
KAHS 040608Z 01011G16KT 13/10 A2991 RMK A01 T01320101  RH  082%=      5-min Rain = 0
KAHS 040609Z 01010KT 13/10 A2991 RMK A01 T01320101  RH  081%=      5-min Rain = 0
KAHS 040610Z 01011KT 13/10 A2991 RMK A01 T01320101  RH  081%=      5-min Rain = 0
KAHS 040611Z 01012KT 13/10 A2991 RMK A01 T01310101  RH  082%=      5-min Rain = 0
KAHS 040612Z 00012KT 13/10 A2991 RMK A01 T01320101  RH  082%=      5-min Rain = 0
KAHS 040613Z 01013KT 13/10 A2991 RMK A01 T01320101  RH  082%=      5-min Rain = 0
KAHS 040614Z 01011KT 13/10 A2991 RMK A01 T01320101  RH  081%=      5-min Rain = 0
KAHS 040615Z 01010KT 13/10 A2991 RMK A01 T01320101  RH  081%=      5-min Rain = 0
KAHS 040616Z 01011KT 13/10 A2991 RMK A01 T01310101  RH  082%=      5-min Rain = 0
KAHS 040617Z 01012KT 13/10 A2991 RMK A01 T01310101  RH  082%=      5-min Rain = 0
KAHS 040618Z 01010KT 13/10 A2991 RMK A01 T01310101  RH  082%=      5-min Rain = 0
KAHS 040619Z 02012G17KT 13/10 A2991 RMK A01 T01310101  RH  082%=      5-min Rain = 0
KAHS 040620Z 02010KT 13/10 A2991 RMK A01 T01310101  RH  082%=      5-min Rain = 0
KAHS 040621Z 02009KT 13/10 A2991 RMK A01 T01310101  RH  082%=      5-min Rain = 0
KAHS 040622Z 02010KT 13/10 A2991 RMK A01 T01310101  RH  082%=      5-min Rain = 0
KAHS 040623Z 01010KT 13/10 A2991 RMK A01 T01310101  RH  082%=      5-min Rain = 0
KAHS 040624Z 01012KT 13/10 A2991 RMK A01 T01310101  RH  082%=      5-min Rain = 0
KAHS 040625Z 01011KT 13/10 A2991 RMK A01 T01310101  RH  082%=      5-min Rain = 0
KAHS 040626Z 02009KT 13/10 A2991 RMK A01 T01310101  RH  082%=      5-min Rain = 0
KAHS 040627Z 01009KT 13/10 A2991 RMK A01 T01310100  RH  082%=      5-min Rain = 0
KAHS 040628Z 01010KT 13/10 A2992 RMK A01 T01310100  RH  082%=      5-min Rain = 0
KAHS 040629Z 01009KT 13/10 A2992 RMK A01 T01300100  RH  082%=      5-min Rain = 0
KAHS 040630Z 01010KT 13/10 A2992 RMK A01 T01300101  RH  082%=      5-min Rain = 0
KAHS 040631Z 01010KT 13/10 A2992 RMK A01 T01300101  RH  082%=      5-min Rain = 0
KAHS 040632Z 01009KT 13/10 A2992 RMK A01 T01300100  RH  082%=      5-min Rain = 0
KAHS 040633Z 01007KT 13/10 A2992 RMK A01 T01300100  RH  082%=      5-min Rain = 0
KAHS 040634Z 01008KT 13/10 A2992 RMK A01 T01300100  RH  082%=      5-min Rain = 0
KAHS 040635Z 01006KT 13/10 A2992 RMK A01 T01290100  RH  083%=      5-min Rain = 0
KAHS 040636Z 01008KT 13/10 A2992 RMK A01 T01290100  RH  083%=      5-min Rain = 0
KAHS 040637Z 01008KT 13/10 A2992 RMK A01 T01290101  RH  083%=      5-min Rain = 0
KAHS 040638Z 01008KT 13/10 A2992 RMK A01 T01290101  RH  083%=      5-min Rain = 0
KAHS 040639Z 01006KT 13/10 A2992 RMK A01 T01280100  RH  083%=      5-min Rain = 0
KAHS 040640Z 01009KT 13/10 A2992 RMK A01 T01280100  RH  083%=      5-min Rain = 0
KAHS 040641Z 00008KT 13/10 A2992 RMK A01 T01280100  RH  083%=      5-min Rain = 0
KAHS 040642Z 01010KT 13/10 A2992 RMK A01 T01280101  RH  084%=      5-min Rain = 0
KAHS 040643Z 01011G16KT 13/10 A2992 RMK A01 T01280101  RH  084%=      5-min Rain = 0
KAHS 040644Z 00008KT 13/10 A2992 RMK A01 T01290101  RH  083%=      5-min Rain = 0
KAHS 040645Z 01011KT 13/10 A2992 RMK A01 T01290101  RH  083%=      5-min Rain = 0
KAHS 040646Z 00009KT 13/10 A2992 RMK A01 T01290101  RH  083%=      5-min Rain = 0
KAHS 040647Z 01009KT 13/10 A2992 RMK A01 T01290101  RH  083%=      5-min Rain = 0
KAHS 040648Z 01009KT 13/10 A2992 RMK A01 T01290101  RH  083%=      5-min Rain = 0
KAHS 040649Z 00011KT 13/10 A2992 RMK A01 T01290101  RH  083%=      5-min Rain = 0
KAHS 040650Z 01009KT 13/10 A2992 RMK A01 T01290101  RH  083%=      5-min Rain = 0
KAHS 040651Z 01010KT 13/10 A2992 RMK A01 T01290101  RH  083%=      5-min Rain = 0
KAHS 040652Z 01012KT 13/10 A2992 RMK A01 T01290101  RH  083%=      5-min Rain = 0
KAHS 040653Z 01012KT 13/10 A2992 RMK A01 T01290100  RH  083%=      5-min Rain = 0
KAHS 040654Z 00012KT 13/10 A2992 RMK A01 T01290100  RH  082%=      5-min Rain = 0
KAHS 040655Z 01012KT 13/10 A2992 RMK A01 T01300100  RH  082%=      5-min Rain = 0
KAHS 040656Z 36012KT 13/10 A2992 RMK A01 T01290100  RH  082%=      5-min Rain = 0
KAHS 040657Z 00010KT 13/10 A2992 RMK A01 T01300100  RH  082%=      5-min Rain = 0
KAHS 040658Z 00011G16KT 13/10 A2992 RMK A01 T01290100  RH  082%=      5-min Rain = 0
KAHS 040659Z 01013KT 13/10 A2992 RMK A01 T01300100  RH  082%=      5-min Rain = 0
KAHS 040700Z 00014KT 13/10 A2992 RMK A01 T01300100  RH  082%=      5-min Rain = 0
KAHS 040701Z 00012KT 13/10 A2992 RMK A01 T01300100  RH  082%=      5-min Rain = 0
KAHS 040702Z 00008KT 13/10 A2992 RMK A01 T01300100  RH  082%=      5-min Rain = 0
KAHS 040703Z 00010KT 13/10 A2992 RMK A01 T01300100  RH  082%=      5-min Rain = 0
KAHS 040704Z 01010KT 13/10 A2993 RMK A01 T01300099  RH  082%=      5-min Rain = 0
KAHS 040705Z 00010KT 13/10 A2993 RMK A01 T01290100  RH  082%=      5-min Rain = 0
KAHS 040706Z 01012KT 13/10 A2993 RMK A01 T01290100  RH  082%=      5-min Rain = 0
KAHS 040707Z 00010KT 13/10 A2993 RMK A01 T01300100  RH  082%=      5-min Rain = 0
KAHS 040708Z 01009KT 13/10 A2993 RMK A01 T01290100  RH  082%=      5-min Rain = 0
KAHS 040709Z 01007KT 13/10 A2993 RMK A01 T01290099  RH  082%=      5-min Rain = 0
KAHS 040710Z 00012G17KT 13/10 A2993 RMK A01 T01280099  RH  083%=      5-min Rain = 0
KAHS 040711Z 01011KT 13/10 A2993 RMK A01 T01290100  RH  083%=      5-min Rain = 0
KAHS 040712Z 00011KT 13/10 A2993 RMK A01 T01280100  RH  083%=      5-min Rain = 0
KAHS 040713Z 00012KT 13/10 A2993 RMK A01 T01290100  RH  083%=      5-min Rain = 0
KAHS 040714Z 01014KT 13/10 A2993 RMK A01 T01290100  RH  083%=      5-min Rain = 0
KAHS 040715Z 01012KT 13/10 A2993 RMK A01 T01290100  RH  083%=      5-min Rain = 0
KAHS 040716Z 01012G17KT 13/10 A2993 RMK A01 T01290100  RH  083%=      5-min Rain = 0
KAHS 040717Z 01010G16KT 13/10 A2993 RMK A01 T01290100  RH  083%=      5-min Rain = 0
KAHS 040718Z 01012G18KT 13/10 A2993 RMK A01 T01290100  RH  083%=      5-min Rain = 0
KAHS 040719Z 01016KT 13/10 A2993 RMK A01 T01290100  RH  083%=      5-min Rain = 0
KAHS 040720Z 01013G18KT 13/10 A2993 RMK A01 T01290100  RH  083%=      5-min Rain = 0
KAHS 040721Z 01011KT 13/10 A2993 RMK A01 T01290100  RH  083%=      5-min Rain = 0
KAHS 040722Z 01012G18KT 13/10 A2994 RMK A01 T01290100  RH  083%=      5-min Rain = 0
KAHS 040723Z 00013G18KT 13/10 A2994 RMK A01 T01280100  RH  083%=      5-min Rain = 0
KAHS 040724Z 01011G17KT 13/10 A2994 RMK A01 T01280100  RH  083%=      5-min Rain = 0
KAHS 040725Z 01013KT 13/10 A2994 RMK A01 T01280100  RH  083%=      5-min Rain = 0
KAHS 040726Z 01012KT 13/10 A2994 RMK A01 T01280100  RH  083%=      5-min Rain = 0
KAHS 040727Z 01014KT 13/10 A2994 RMK A01 T01280100  RH  083%=      5-min Rain = 0
KAHS 040728Z 01012KT 13/10 A2994 RMK A01 T01280100  RH  083%=      5-min Rain = 0
KAHS 040729Z 01015KT 13/10 A2994 RMK A01 T01280100  RH  083%=      5-min Rain = 0
KAHS 040730Z 01012G17KT 13/10 A2994 RMK A01 T01280100  RH  083%=      5-min Rain = 0
KAHS 040731Z 01014KT 13/10 A2994 RMK A01 T01280100  RH  083%=      5-min Rain = 0
KAHS 040732Z 01011KT 13/10 A2994 RMK A01 T01280099  RH  083%=      5-min Rain = 0
KAHS 040733Z 01016KT 13/10 A2994 RMK A01 T01280100  RH  083%=      5-min Rain = 0
KAHS 040734Z 01015KT 13/10 A2994 RMK A01 T01270099  RH  083%=      5-min Rain = 0
KAHS 040735Z 01015G20KT 13/10 A2994 RMK A01 T01280099  RH  083%=      5-min Rain = 0
KAHS 040736Z 00014G19KT 13/10 A2994 RMK A01 T01280099  RH  083%=      5-min Rain = 0
KAHS 040737Z 01013KT 13/10 A2994 RMK A01 T01270099  RH  083%=      5-min Rain = 0
KAHS 040738Z 01015G20KT 13/10 A2994 RMK A01 T01270099  RH  083%=      5-min Rain = 0
KAHS 040739Z 00013KT 13/10 A2994 RMK A01 T01270099  RH  083%=      5-min Rain = 0
KAHS 040740Z 01016KT 13/10 A2994 RMK A01 T01270099  RH  083%=      5-min Rain = 0
KAHS 040741Z 01016G22KT 13/10 A2994 RMK A01 T01270099  RH  083%=      5-min Rain = 0
KAHS 040742Z 00016KT 13/10 A2994 RMK A01 T01260099  RH  083%=      5-min Rain = 0
KAHS 040743Z 00013G18KT 13/10 A2994 RMK A01 T01260099  RH  083%=      5-min Rain = 0
KAHS 040744Z 01015G20KT 13/10 A2994 RMK A01 T01260099  RH  083%=      5-min Rain = 0
KAHS 040745Z 00016KT 13/10 A2994 RMK A01 T01260098  RH  083%=      5-min Rain = 0
KAHS 040746Z 01014KT 13/10 A2994 RMK A01 T01260098  RH  083%=      5-min Rain = 0
KAHS 040747Z 01012G19KT 13/10 A2994 RMK A01 T01260098  RH  083%=      5-min Rain = 0
KAHS 040748Z 01015KT 13/10 A2994 RMK A01 T01250098  RH  084%=      5-min Rain = 0
KAHS 040749Z 01014KT 13/10 A2994 RMK A01 T01250098  RH  084%=      5-min Rain = 0
KAHS 040750Z 01012G17KT 13/10 A2994 RMK A01 T01250098  RH  084%=      5-min Rain = 0
KAHS 040751Z 01015G21KT 13/10 A2994 RMK A01 T01250098  RH  084%=      5-min Rain = 0
KAHS 040752Z 02016KT 13/10 A2994 RMK A01 T01250098  RH  084%=      5-min Rain = 0
KAHS 040753Z 02017KT 13/10 A2994 RMK A01 T01250098  RH  084%=      5-min Rain = 0
KAHS 040754Z 01017G24KT 13/10 A2994 RMK A01 T01250098  RH  083%=      5-min Rain = 0
KAHS 040755Z 01014KT 13/10 A2994 RMK A01 T01260097  RH  083%=      5-min Rain = 0
KAHS 040756Z 01016KT 13/10 A2994 RMK A01 T01260097  RH  083%=      5-min Rain = 0
KAHS 040757Z 01015KT 13/10 A2995 RMK A01 T01260097  RH  083%=      5-min Rain = 0
KAHS 040758Z 01016KT 13/10 A2995 RMK A01 T01250097  RH  083%=      5-min Rain = 0
KAHS 040759Z 01015KT 13/10 A2995 RMK A01 T01250097  RH  083%=      5-min Rain = 0
KAHS 040800Z 01013G18KT 13/10 A2995 RMK A01 T01250097  RH  083%=      5-min Rain = 0
KAHS 040801Z 01015KT 12/10 A2995 RMK A01 T01240097  RH  083%=      5-min Rain = 0
KAHS 040802Z 01012KT 12/10 A2995 RMK A01 T01240097  RH  083%=      5-min Rain = 0
KAHS 040803Z 01013KT 12/10 A2995 RMK A01 T01240097  RH  084%=      5-min Rain = 0
KAHS 040804Z 01012G18KT 12/10 A2995 RMK A01 T01240097  RH  084%=      5-min Rain = 0
KAHS 040805Z 01014KT 12/10 A2995 RMK A01 T01240097  RH  084%=      5-min Rain = 0
KAHS 040806Z 01011KT 12/10 A2995 RMK A01 T01230097  RH  084%=      5-min Rain = 0
KAHS 040807Z 01015KT 12/10 A2995 RMK A01 T01230097  RH  084%=      5-min Rain = 0
KAHS 040808Z 01012G17KT 12/10 A2995 RMK A01 T01230097  RH  084%=      5-min Rain = 0
KAHS 040809Z 01011KT 12/10 A2995 RMK A01 T01230097  RH  084%=      5-min Rain = 0
KAHS 040810Z 01010G15KT 12/10 A2995 RMK A01 T01220097  RH  084%=      5-min Rain = 0
KAHS 040811Z 01011KT 12/10 A2995 RMK A01 T01220097  RH  085%=      5-min Rain = 0
KAHS 040812Z 01010KT 12/10 A2995 RMK A01 T01220097  RH  085%=      5-min Rain = 0
KAHS 040813Z 01012KT 12/10 A2995 RMK A01 T01220097  RH  085%=      5-min Rain = 0
KAHS 040814Z 01010KT 12/10 A2996 RMK A01 T01220097  RH  085%=      5-min Rain = 0
KAHS 040815Z 02010KT 12/10 A2996 RMK A01 T01220098  RH  085%=      5-min Rain = 0
KAHS 040816Z 01011KT 12/10 A2996 RMK A01 T01220098  RH  085%=      5-min Rain = 0
KAHS 040817Z 01012KT 12/10 A2996 RMK A01 T01220098  RH  085%=      5-min Rain = 0
KAHS 040818Z 01012KT 12/10 A2996 RMK A01 T01230098  RH  085%=      5-min Rain = 0
KAHS 040819Z 01009KT 12/10 A2996 RMK A01 T01230098  RH  085%=      5-min Rain = 0
KAHS 040820Z 01010KT 12/10 A2996 RMK A01 T01230098  RH  085%=      5-min Rain = 0
KAHS 040821Z 01013KT 12/10 A2996 RMK A01 T01230098  RH  085%=      5-min Rain = 0
KAHS 040822Z 01012KT 12/10 A2996 RMK A01 T01230099  RH  085%=      5-min Rain = 0
KAHS 040823Z 01011KT 12/10 A2996 RMK A01 T01240098  RH  085%=      5-min Rain = 0
KAHS 040824Z 01012G17KT 12/10 A2996 RMK A01 T01240098  RH  085%=      5-min Rain = 0
KAHS 040825Z 00015KT 12/10 A2996 RMK A01 T01240098  RH  085%=      5-min Rain = 0
KAHS 040826Z 02016G21KT 12/10 A2996 RMK A01 T01240098  RH  084%=      5-min Rain = 0
KAHS 040827Z 02014KT 12/10 A2996 RMK A01 T01240097  RH  084%=      5-min Rain = 0
KAHS 040828Z 02014KT 12/10 A2996 RMK A01 T01240097  RH  084%=      5-min Rain = 0
KAHS 040829Z 01013KT 12/10 A2996 RMK A01 T01240097  RH  084%=      5-min Rain = 0
KAHS 040830Z 01012G20KT 12/10 A2996 RMK A01 T01240097  RH  084%=      5-min Rain = 0
KAHS 040831Z 00016G22KT 12/10 A2996 RMK A01 T01240097  RH  084%=      5-min Rain = 0
KAHS 040832Z 01013KT 12/10 A2996 RMK A01 T01240097  RH  084%=      5-min Rain = 0
KAHS 040833Z 01014G19KT 12/10 A2996 RMK A01 T01240097  RH  084%=      5-min Rain = 0
KAHS 040834Z 01013G19KT 12/10 A2996 RMK A01 T01240097  RH  084%=      5-min Rain = 0
KAHS 040835Z 00015KT 12/10 A2996 RMK A01 T01230097  RH  084%=      5-min Rain = 0
KAHS 040836Z 01014G19KT 12/10 A2996 RMK A01 T01230096  RH  084%=      5-min Rain = 0
KAHS 040837Z 01020KT 12/10 A2996 RMK A01 T01230096  RH  084%=      5-min Rain = 0
KAHS 040838Z 01016G23KT 12/10 A2996 RMK A01 T01230095  RH  083%=      5-min Rain = 0
KAHS 040839Z 02014G19KT 12/10 A2996 RMK A01 T01230095  RH  083%=      5-min Rain = 0
KAHS 040840Z 01013KT 12/10 A2997 RMK A01 T01230096  RH  083%=      5-min Rain = 0
KAHS 040841Z 01015KT 12/10 A2997 RMK A01 T01230096  RH  084%=      5-min Rain = 0
KAHS 040842Z 01015KT 12/10 A2997 RMK A01 T01230096  RH  084%=      5-min Rain = 0
KAHS 040843Z 01017G22KT 12/10 A2997 RMK A01 T01220095  RH  084%=      5-min Rain = 0
KAHS 040844Z 01015KT 12/10 A2997 RMK A01 T01230095  RH  084%=      5-min Rain = 0
KAHS 040845Z 01016KT 12/10 A2997 RMK A01 T01220095  RH  084%=      5-min Rain = 0
KAHS 040846Z 01014G21KT 12/10 A2997 RMK A01 T01220095  RH  084%=      5-min Rain = 0
KAHS 040847Z 01014KT 12/10 A2997 RMK A01 T01220095  RH  084%=      5-min Rain = 0
KAHS 040848Z 01012G17KT 12/10 A2997 RMK A01 T01220095  RH  084%=      5-min Rain = 0
KAHS 040849Z 01015KT 12/10 A2997 RMK A01 T01220095  RH  084%=      5-min Rain = 0
KAHS 040850Z 01017KT 12/10 A2997 RMK A01 T01220095  RH  084%=      5-min Rain = 0
KAHS 040851Z 01015KT 12/10 A2997 RMK A01 T01220095  RH  083%=      5-min Rain = 0
KAHS 040852Z 01012G17KT 12/10 A2997 RMK A01 T01220095  RH  083%=      5-min Rain = 0
KAHS 040853Z 02012KT 12/10 A2997 RMK A01 T01220095  RH  084%=      5-min Rain = 0
KAHS 040854Z 02017KT 12/10 A2997 RMK A01 T01220095  RH  084%=      5-min Rain = 0
KAHS 040855Z 00013KT 12/10 A2997 RMK A01 T01220095  RH  084%=      5-min Rain = 0
KAHS 040856Z 01012KT 12/10 A2997 RMK A01 T01220095  RH  084%=      5-min Rain = 0
KAHS 040857Z 01012KT 12/10 A2997 RMK A01 T01220095  RH  084%=      5-min Rain = 0
KAHS 040858Z 02012G18KT 12/10 A2997 RMK A01 T01220095  RH  084%=      5-min Rain = 0
KAHS 040859Z 01014G19KT 12/10 A2997 RMK A01 T01220095  RH  084%=      5-min Rain = 0
KAHS 040900Z 01014KT 12/10 A2997 RMK A01 T01220095  RH  084%=      5-min Rain = 0
KAHS 040901Z 02011G18KT 12/10 A2997 RMK A01 T01220095  RH  084%=      5-min Rain = 0
KAHS 040902Z 01013KT 12/10 A2997 RMK A01 T01220095  RH  084%=      5-min Rain = 0
KAHS 040903Z 02013KT 12/10 A2997 RMK A01 T01220095  RH  084%=      5-min Rain = 0
KAHS 040904Z 01011KT 12/10 A2997 RMK A01 T01220095  RH  084%=      5-min Rain = 0
KAHS 040905Z 02014KT 12/10 A2997 RMK A01 T01220095  RH  084%=      5-min Rain = 0
KAHS 040906Z 01015KT 12/10 A2997 RMK A01 T01220095  RH  084%=      5-min Rain = 0
KAHS 040907Z 02013KT 12/10 A2997 RMK A01 T01220095  RH  084%=      5-min Rain = 0
KAHS 040908Z 02012KT 12/10 A2997 RMK A01 T01220095  RH  084%=      5-min Rain = 0
KAHS 040909Z 01012KT 12/09 A2997 RMK A01 T01220094  RH  083%=      5-min Rain = 0
KAHS 040910Z 01012KT 12/09 A2997 RMK A01 T01220094  RH  083%=      5-min Rain = 0
KAHS 040911Z 02015KT 12/09 A2997 RMK A01 T01220094  RH  083%=      5-min Rain = 0
KAHS 040912Z 02015KT 12/09 A2997 RMK A01 T01220094  RH  083%=      5-min Rain = 0
KAHS 040913Z 01013KT 12/09 A2998 RMK A01 T01220094  RH  083%=      5-min Rain = 0
KAHS 040914Z 01010KT 12/09 A2998 RMK A01 T01220094  RH  083%=      5-min Rain = 0
KAHS 040915Z 01011KT 12/09 A2998 RMK A01 T01220094  RH  083%=      5-min Rain = 0
KAHS 040916Z 01014G21KT 12/09 A2998 RMK A01 T01220094  RH  083%=      5-min Rain = 0
KAHS 040917Z 01017KT 12/09 A2998 RMK A01 T01210093  RH  083%=      5-min Rain = 0
KAHS 040918Z 01018KT 12/09 A2998 RMK A01 T01210092  RH  083%=      5-min Rain = 0
KAHS 040919Z 03017G23KT 12/09 A2998 RMK A01 T01220092  RH  082%=      5-min Rain = 0
KAHS 040920Z 01015KT 12/09 A2998 RMK A01 T01210092  RH  082%=      5-min Rain = 0
KAHS 040921Z 01019KT 12/09 A2998 RMK A01 T01210092  RH  082%=      5-min Rain = 0
KAHS 040922Z 01018KT 12/09 A2998 RMK A01 T01210091  RH  082%=      5-min Rain = 0
KAHS 040923Z 02017G23KT 12/09 A2998 RMK A01 T01220092  RH  082%=      5-min Rain = 0
KAHS 040924Z 02015G20KT 12/09 A2998 RMK A01 T01220092  RH  082%=      5-min Rain = 0
KAHS 040925Z 02012G17KT 12/09 A2998 RMK A01 T01220092  RH  082%=      5-min Rain = 0
KAHS 040926Z 01014KT 12/09 A2998 RMK A01 T01220092  RH  082%=      5-min Rain = 0
KAHS 040927Z 02014KT 12/09 A2998 RMK A01 T01220093  RH  082%=      5-min Rain = 0
KAHS 040928Z 02015KT 12/09 A2998 RMK A01 T01220092  RH  082%=      5-min Rain = 0
KAHS 040929Z 02013KT 12/09 A2999 RMK A01 T01220092  RH  082%=      5-min Rain = 0
KAHS 040930Z 01011KT 12/09 A2999 RMK A01 T01220092  RH  082%=      5-min Rain = 0
KAHS 040931Z 02015KT 12/09 A2999 RMK A01 T01220093  RH  083%=      5-min Rain = 0
KAHS 040932Z 01013KT 12/09 A2999 RMK A01 T01220093  RH  082%=      5-min Rain = 0
KAHS 040933Z 01014KT 12/09 A2999 RMK A01 T01220092  RH  082%=      5-min Rain = 0
KAHS 040934Z 01013KT 12/09 A2999 RMK A01 T01220092  RH  082%=      5-min Rain = 0
KAHS 040935Z 01012KT 12/09 A2999 RMK A01 T01220092  RH  082%=      5-min Rain = 0
KAHS 040936Z 01011KT 12/09 A2999 RMK A01 T01220093  RH  083%=      5-min Rain = 0
KAHS 040937Z 01012KT 12/09 A2999 RMK A01 T01220093  RH  083%=      5-min Rain = 0
KAHS 040938Z 01010KT 12/09 A2999 RMK A01 T01220093  RH  083%=      5-min Rain = 0
KAHS 040939Z 01009KT 12/09 A2999 RMK A01 T01220093  RH  083%=      5-min Rain = 0
KAHS 040940Z 01010KT 12/09 A2999 RMK A01 T01220094  RH  083%=      5-min Rain = 0
KAHS 040941Z 36009KT 12/09 A2999 RMK A01 T01220094  RH  083%=      5-min Rain = 0
KAHS 040942Z 00013G19KT 12/09 A2999 RMK A01 T01220094  RH  083%=      5-min Rain = 0
KAHS 040943Z 01012KT 12/09 A2999 RMK A01 T01220094  RH  083%=      5-min Rain = 0
KAHS 040944Z 01012KT 12/09 A2999 RMK A01 T01220094  RH  083%=      5-min Rain = 0
KAHS 040945Z 01012G17KT 12/09 A30 RMK A01 T01220094  RH  083%=      5-min Rain = 0
KAHS 040946Z 01014KT 12/09 A30 RMK A01 T01220093  RH  082%=      5-min Rain = 0
KAHS 040947Z 00009KT 12/09 A30 RMK A01 T01220093  RH  082%=      5-min Rain = 0
KAHS 040948Z 01010G15KT 12/09 A30 RMK A01 T01230094  RH  082%=      5-min Rain = 0
KAHS 040949Z 00012KT 12/09 A30 RMK A01 T01220093  RH  083%=      5-min Rain = 0
KAHS 040950Z 01012G17KT 12/09 A30 RMK A01 T01220093  RH  082%=      5-min Rain = 0
KAHS 040951Z 01014KT 12/09 A30 RMK A01 T01220093  RH  082%=      5-min Rain = 0
KAHS 040952Z 01011KT 12/09 A30 RMK A01 T01220093  RH  082%=      5-min Rain = 0
KAHS 040953Z 00009KT 12/09 A30 RMK A01 T01220093  RH  082%=      5-min Rain = 0
KAHS 040954Z 00010KT 12/09 A30 RMK A01 T01220093  RH  082%=      5-min Rain = 0
KAHS 040955Z 00008KT 12/09 A30 RMK A01 T01220093  RH  082%=      5-min Rain = 0
KAHS 040956Z 02009KT 12/09 A30 RMK A01 T01220093  RH  082%=      5-min Rain = 0
KAHS 040957Z 01014KT 12/09 A30 RMK A01 T01220093  RH  082%=      5-min Rain = 0
KAHS 040958Z 01012KT 12/09 A30 RMK A01 T01220093  RH  082%=      5-min Rain = 0
KAHS 040959Z 01011KT 12/09 A30 RMK A01 T01220093  RH  082%=      5-min Rain = 0
KAHS 041000Z 01010KT 12/09 A30 RMK A01 T01220093  RH  082%=      5-min Rain = 0
KAHS 041001Z 00011KT 12/09 A30 RMK A01 T01220093  RH  082%=      5-min Rain = 0
KAHS 041002Z 02013G18KT 12/09 A30 RMK A01 T01220093  RH  082%=      5-min Rain = 0
KAHS 041003Z 00010G15KT 12/09 A30 RMK A01 T01220093  RH  082%=      5-min Rain = 0
KAHS 041004Z 01011KT 12/09 A30 RMK A01 T01220093  RH  082%=      5-min Rain = 0
KAHS 041005Z 01010G16KT 12/09 A30 RMK A01 T01220093  RH  082%=      5-min Rain = 0
KAHS 041006Z 01012G17KT 12/09 A30 RMK A01 T01220093  RH  082%=      5-min Rain = 0
KAHS 041007Z 01012KT 12/09 A30 RMK A01 T01220093  RH  082%=      5-min Rain = 0
KAHS 041008Z 01013G20KT 12/09 A30 RMK A01 T01220092  RH  082%=      5-min Rain = 0
KAHS 041009Z 01009G15KT 12/09 A30 RMK A01 T01220092  RH  082%=      5-min Rain = 0
KAHS 041010Z 01011KT 12/09 A30 RMK A01 T01220092  RH  082%=      5-min Rain = 0
KAHS 041011Z 01010G15KT 12/09 A30 RMK A01 T01220092  RH  082%=      5-min Rain = 0
KAHS 041012Z 01016KT 12/09 A30 RMK A01 T01220091  RH  082%=      5-min Rain = 0
KAHS 041013Z 01013KT 12/09 A30 RMK A01 T01220091  RH  081%=      5-min Rain = 0
KAHS 041014Z 01010KT 12/09 A3001 RMK A01 T01220091  RH  081%=      5-min Rain = 0
KAHS 041015Z 01011KT 12/09 A3001 RMK A01 T01220091  RH  082%=      5-min Rain = 0
KAHS 041016Z 36010KT 12/09 A3001 RMK A01 T01220092  RH  082%=      5-min Rain = 0
KAHS 041017Z 00009KT 12/09 A3001 RMK A01 T01220092  RH  082%=      5-min Rain = 0
KAHS 041018Z 01014KT 12/09 A3001 RMK A01 T01220092  RH  082%=      5-min Rain = 0
KAHS 041019Z 01011KT 12/09 A3001 RMK A01 T01220091  RH  082%=      5-min Rain = 0
KAHS 041020Z 01013KT 12/09 A3002 RMK A01 T01220091  RH  082%=      5-min Rain = 0
KAHS 041021Z 01010KT 12/09 A3002 RMK A01 T01220091  RH  082%=      5-min Rain = 0
KAHS 041022Z 01012KT 12/09 A3002 RMK A01 T01220091  RH  082%=      5-min Rain = 0
KAHS 041023Z 00009KT 12/09 A3002 RMK A01 T01220091  RH  081%=      5-min Rain = 0
KAHS 041024Z 35010KT 12/09 A3001 RMK A01 T01220091  RH  082%=      5-min Rain = 0
KAHS 041025Z 01009KT 12/09 A3001 RMK A01 T01220091  RH  082%=      5-min Rain = 0
KAHS 041026Z 01011KT 12/09 A3001 RMK A01 T01220092  RH  082%=      5-min Rain = 0
KAHS 041027Z 01012KT 12/09 A3001 RMK A01 T01220092  RH  082%=      5-min Rain = 0
KAHS 041028Z 01013KT 12/09 A3001 RMK A01 T01220091  RH  082%=      5-min Rain = 0
KAHS 041029Z 01011KT 12/09 A3001 RMK A01 T01220091  RH  081%=      5-min Rain = 0
KAHS 041030Z 01013KT 12/09 A3001 RMK A01 T01220090  RH  081%=      5-min Rain = 0
KAHS 041031Z 01011KT 12/09 A3001 RMK A01 T01220090  RH  081%=      5-min Rain = 0
KAHS 041032Z 01014KT 12/09 A3001 RMK A01 T01220090  RH  081%=      5-min Rain = 0
KAHS 041033Z 01014KT 12/09 A3002 RMK A01 T01220089  RH  081%=      5-min Rain = 0
KAHS 041034Z 01010KT 12/09 A3002 RMK A01 T01220089  RH  081%=      5-min Rain = 0
KAHS 041035Z 01011G16KT 12/09 A3002 RMK A01 T01220090  RH  081%=      5-min Rain = 0
KAHS 041036Z 01011KT 12/09 A3002 RMK A01 T01220089  RH  081%=      5-min Rain = 0
KAHS 041037Z 01010KT 12/09 A3002 RMK A01 T01220090  RH  081%=      5-min Rain = 0
KAHS 041038Z 01012G17KT 12/09 A3002 RMK A01 T01220090  RH  081%=      5-min Rain = 0
KAHS 041039Z 01009KT 12/09 A3002 RMK A01 T01220090  RH  081%=      5-min Rain = 0
KAHS 041040Z 02009KT 12/09 A3002 RMK A01 T01220090  RH  081%=      5-min Rain = 0
KAHS 041041Z 02010KT 12/09 A3002 RMK A01 T01220091  RH  081%=      5-min Rain = 0
KAHS 041042Z 02012KT 12/09 A3002 RMK A01 T01220090  RH  081%=      5-min Rain = 0
KAHS 041043Z 02011KT 12/09 A3002 RMK A01 T01220090  RH  081%=      5-min Rain = 0
KAHS 041044Z 02011KT 12/09 A3002 RMK A01 T01220090  RH  081%=      5-min Rain = 0
KAHS 041045Z 02013KT 12/09 A3002 RMK A01 T01220089  RH  081%=      5-min Rain = 0
KAHS 041046Z 02009KT 12/09 A3002 RMK A01 T01220090  RH  081%=      5-min Rain = 0
KAHS 041047Z 02008KT 12/09 A3002 RMK A01 T01220089  RH  081%=      5-min Rain = 0
KAHS 041048Z 02008KT 12/09 A3002 RMK A01 T01220090  RH  081%=      5-min Rain = 0
KAHS 041049Z 02008KT 12/09 A3002 RMK A01 T01220091  RH  081%=      5-min Rain = 0
KAHS 041050Z 02007KT 12/09 A3002 RMK A01 T01220091  RH  082%=      5-min Rain = 0
KAHS 041051Z 01008KT 12/09 A3002 RMK A01 T01220092  RH  082%=      5-min Rain = 0
KAHS 041052Z 01009KT 12/09 A3002 RMK A01 T01210092  RH  082%=      5-min Rain = 0
KAHS 041053Z 02009KT 12/09 A3002 RMK A01 T01210091  RH  082%=      5-min Rain = 0
KAHS 041054Z 01011KT 12/09 A3002 RMK A01 T01220091  RH  082%=      5-min Rain = 0
KAHS 041055Z 01009KT 12/09 A3002 RMK A01 T01220090  RH  081%=      5-min Rain = 0
KAHS 041056Z 01009KT 12/09 A3002 RMK A01 T01220090  RH  081%=      5-min Rain = 0
KAHS 041057Z 02011KT 12/09 A3003 RMK A01 T01220090  RH  081%=      5-min Rain = 0
KAHS 041058Z 02010KT 12/09 A3003 RMK A01 T01220090  RH  081%=      5-min Rain = 0
KAHS 041059Z 01009KT 12/09 A3003 RMK A01 T01220090  RH  081%=      5-min Rain = 0
KAHS 041100Z 01006KT 12/09 A3003 RMK A01 T01220091  RH  081%=      5-min Rain = 0
KAHS 041101Z 01005KT 12/09 A3003 RMK A01 T01220091  RH  082%=      5-min Rain = 0
KAHS 041102Z 36010KT 12/09 A3003 RMK A01 T01220092  RH  082%=      5-min Rain = 0
KAHS 041103Z 01012KT 12/09 A3003 RMK A01 T01220091  RH  082%=      5-min Rain = 0
KAHS 041104Z 00010KT 12/09 A3003 RMK A01 T01220091  RH  081%=      5-min Rain = 0
KAHS 041105Z 01009KT 12/09 A3003 RMK A01 T01220090  RH  081%=      5-min Rain = 0
KAHS 041106Z 00009KT 12/09 A3003 RMK A01 T01220091  RH  081%=      5-min Rain = 0
KAHS 041107Z 36011KT 12/09 A3003 RMK A01 T01220091  RH  081%=      5-min Rain = 0
KAHS 041108Z 01013KT 12/09 A3003 RMK A01 T01220090  RH  081%=      5-min Rain = 0
KAHS 041109Z 00008KT 12/09 A3003 RMK A01 T01220090  RH  081%=      5-min Rain = 0
KAHS 041110Z 01008KT 12/09 A3003 RMK A01 T01220090  RH  081%=      5-min Rain = 0
KAHS 041111Z 36009G14KT 12/09 A3003 RMK A01 T01220090  RH  081%=      5-min Rain = 0
KAHS 041112Z 35009KT 12/09 A3004 RMK A01 T01220090  RH  081%=      5-min Rain = 0
KAHS 041113Z 00011G16KT 12/09 A3004 RMK A01 T01220090  RH  081%=      5-min Rain = 0
KAHS 041114Z 01014KT 12/09 A3004 RMK A01 T01220090  RH  081%=      5-min Rain = 0
KAHS 041115Z 01012KT 12/09 A3004 RMK A01 T01220089  RH  080%=      5-min Rain = 0
KAHS 041116Z 01010KT 12/09 A3004 RMK A01 T01220089  RH  080%=      5-min Rain = 0
KAHS 041117Z 01010KT 12/09 A3004 RMK A01 T01220089  RH  080%=      5-min Rain = 0
KAHS 041118Z 00010KT 12/09 A3004 RMK A01 T01220089  RH  080%=      5-min Rain = 0
KAHS 041119Z 01013KT 12/09 A3004 RMK A01 T01210088  RH  080%=      5-min Rain = 0
KAHS 041120Z 01012KT 12/09 A3004 RMK A01 T01210088  RH  080%=      5-min Rain = 0
KAHS 041121Z 00013KT 12/09 A3004 RMK A01 T01210087  RH  080%=      5-min Rain = 0
KAHS 041122Z 00013KT 12/09 A3004 RMK A01 T01210087  RH  080%=      5-min Rain = 0
KAHS 041123Z 01011KT 12/09 A3004 RMK A01 T01210087  RH  080%=      5-min Rain = 0
KAHS 041124Z 01011KT 12/09 A3004 RMK A01 T01210088  RH  080%=      5-min Rain = 0
KAHS 041125Z 01011KT 12/09 A3004 RMK A01 T01210088  RH  080%=      5-min Rain = 0
KAHS 041126Z 00011KT 12/09 A3004 RMK A01 T01210088  RH  080%=      5-min Rain = 0
KAHS 041127Z 00008KT 12/09 A3004 RMK A01 T01210088  RH  080%=      5-min Rain = 0
KAHS 041128Z 00010KT 12/09 A3004 RMK A01 T01210089  RH  081%=      5-min Rain = 0
KAHS 041129Z 00012KT 12/09 A3004 RMK A01 T01210088  RH  080%=      5-min Rain = 0
KAHS 041130Z 00010KT 12/09 A3004 RMK A01 T01210088  RH  080%=      5-min Rain = 0
KAHS 041131Z 01011KT 12/09 A3004 RMK A01 T01210088  RH  080%=      5-min Rain = 0
KAHS 041132Z 00010KT 12/09 A3004 RMK A01 T01210088  RH  080%=      5-min Rain = 0
KAHS 041133Z 00009G14KT 12/09 A3004 RMK A01 T01210088  RH  080%=      5-min Rain = 0
KAHS 041134Z 01008KT 12/09 A3004 RMK A01 T01210089  RH  081%=      5-min Rain = 0
KAHS 041135Z 01009KT 12/09 A3004 RMK A01 T01210089  RH  081%=      5-min Rain = 0
KAHS 041136Z 01008KT 12/09 A3004 RMK A01 T01210089  RH  081%=      5-min Rain = 0
KAHS 041137Z 01008KT 12/09 A3005 RMK A01 T01210089  RH  081%=      5-min Rain = 0
KAHS 041138Z 01012KT 12/09 A3005 RMK A01 T01200088  RH  081%=      5-min Rain = 0
KAHS 041139Z 01008KT 12/09 A3005 RMK A01 T01200087  RH  080%=      5-min Rain = 0
KAHS 041140Z 02009KT 12/09 A3005 RMK A01 T01210088  RH  080%=      5-min Rain = 0
KAHS 041141Z 01008KT 12/09 A3005 RMK A01 T01210088  RH  080%=      5-min Rain = 0
KAHS 041142Z 01008KT 12/09 A3005 RMK A01 T01210089  RH  081%=      5-min Rain = 0
KAHS 041143Z 01006KT 12/09 A3005 RMK A01 T01210089  RH  081%=      5-min Rain = 0
KAHS 041144Z 01008KT 12/09 A3005 RMK A01 T01210089  RH  081%=      5-min Rain = 0
KAHS 041145Z 02007KT 12/09 A3005 RMK A01 T01210089  RH  081%=      5-min Rain = 0
KAHS 041146Z 01007KT 12/09 A3005 RMK A01 T01210089  RH  081%=      5-min Rain = 0
KAHS 041147Z 02007KT 12/09 A3006 RMK A01 T01200089  RH  081%=      5-min Rain = 0
KAHS 041148Z 02007KT 12/09 A3006 RMK A01 T01210089  RH  081%=      5-min Rain = 0
KAHS 041149Z 02006KT 12/09 A3006 RMK A01 T01200089  RH  081%=      5-min Rain = 0
KAHS 041150Z 01006KT 12/09 A3006 RMK A01 T01200089  RH  081%=      5-min Rain = 0
KAHS 041151Z 01006KT 12/09 A3006 RMK A01 T01200090  RH  081%=      5-min Rain = 0
KAHS 041152Z 02006KT 12/09 A3006 RMK A01 T01200090  RH  082%=      5-min Rain = 0
KAHS 041153Z 02008KT 12/09 A3006 RMK A01 T01200090  RH  082%=      5-min Rain = 0
KAHS 041154Z 02008KT 12/09 A3006 RMK A01 T01210089  RH  081%=      5-min Rain = 0
KAHS 041155Z 01012KT 12/09 A3006 RMK A01 T01200088  RH  081%=      5-min Rain = 0
KAHS 041156Z 00008KT 12/09 A3006 RMK A01 T01210088  RH  080%=      5-min Rain = 0
KAHS 041157Z 00009KT 12/09 A3006 RMK A01 T01210088  RH  080%=      5-min Rain = 0
KAHS 041158Z 01011KT 12/09 A3006 RMK A01 T01210088  RH  080%=      5-min Rain = 0
KAHS 041159Z 01011G16KT 12/09 A3006 RMK A01 T01210088  RH  080%=      5-min Rain = 0
KAHS 041200Z 02013KT 12/09 A3006 RMK A01 T01210087  RH  080%=      5-min Rain = 0
KAHS 041201Z 02011KT 12/09 A3006 RMK A01 T01210086  RH  079%=      5-min Rain = 0
KAHS 041202Z 01009KT 12/09 A3006 RMK A01 T01210087  RH  079%=      5-min Rain = 0
KAHS 041203Z 01010KT 12/09 A3006 RMK A01 T01210087  RH  080%=      5-min Rain = 0
KAHS 041204Z 01008KT 12/09 A3006 RMK A01 T01210087  RH  080%=      5-min Rain = 0
KAHS 041205Z 02008KT 12/09 A3006 RMK A01 T01210087  RH  080%=      5-min Rain = 0
KAHS 041206Z 01007KT 12/09 A3006 RMK A01 T01210087  RH  080%=      5-min Rain = 0
KAHS 041207Z 00007KT 12/09 A3006 RMK A01 T01210088  RH  080%=      5-min Rain = 0
KAHS 041208Z 01010KT 12/09 A3006 RMK A01 T01210088  RH  080%=      5-min Rain = 0
KAHS 041209Z 00009KT 12/09 A3006 RMK A01 T01210088  RH  080%=      5-min Rain = 0
KAHS 041210Z 36009KT 12/09 A3006 RMK A01 T01210088  RH  080%=      5-min Rain = 0
KAHS 041211Z 01008KT 12/09 A3007 RMK A01 T01210087  RH  080%=      5-min Rain = 0
KAHS 041212Z 01010KT 12/09 A3007 RMK A01 T01210087  RH  080%=      5-min Rain = 0
KAHS 041213Z 01007KT 12/09 A3007 RMK A01 T01210087  RH  080%=      5-min Rain = 0
KAHS 041214Z 01007KT 12/09 A3007 RMK A01 T01220088  RH  080%=      5-min Rain = 0
KAHS 041215Z 01005KT 12/09 A3007 RMK A01 T01220088  RH  080%=      5-min Rain = 0
KAHS 041216Z 02006KT 12/09 A3007 RMK A01 T01220089  RH  080%=      5-min Rain = 0
KAHS 041217Z 01006KT 12/09 A3007 RMK A01 T01220089  RH  080%=      5-min Rain = 0
KAHS 041218Z 01006KT 12/09 A3007 RMK A01 T01220089  RH  081%=      5-min Rain = 0
KAHS 041219Z 01006KT 12/09 A3007 RMK A01 T01210089  RH  081%=      5-min Rain = 0
KAHS 041220Z 01007KT 12/09 A3007 RMK A01 T01210088  RH  080%=      5-min Rain = 0
KAHS 041221Z 35006KT 12/09 A3007 RMK A01 T01210088  RH  080%=      5-min Rain = 0
KAHS 041222Z 35005KT 12/09 A3008 RMK A01 T01220089  RH  080%=      5-min Rain = 0
KAHS 041223Z 35005G10KT 12/09 A3008 RMK A01 T01220089  RH  081%=      5-min Rain = 0
KAHS 041224Z 36008KT 12/09 A3008 RMK A01 T01220090  RH  081%=      5-min Rain = 0
KAHS 041225Z 35006KT 12/09 A3008 RMK A01 T01220090  RH  081%=      5-min Rain = 0
KAHS 041226Z 00006KT 12/09 A3008 RMK A01 T01220090  RH  081%=      5-min Rain = 0
KAHS 041227Z 35004KT 12/09 A3008 RMK A01 T01210090  RH  081%=      5-min Rain = 0
KAHS 041228Z 36006KT 12/09 A3007 RMK A01 T01220090  RH  081%=      5-min Rain = 0
KAHS 041229Z 36007KT 12/09 A3007 RMK A01 T01210089  RH  081%=      5-min Rain = 0
KAHS 041230Z 01005KT 12/09 A3007 RMK A01 T01210090  RH  081%=      5-min Rain = 0
KAHS 041231Z 00006KT 12/09 A3008 RMK A01 T01210090  RH  081%=      5-min Rain = 0
KAHS 041232Z 35004KT 12/09 A3008 RMK A01 T01210090  RH  081%=      5-min Rain = 0
KAHS 041233Z 00006KT 12/09 A3008 RMK A01 T01220090  RH  081%=      5-min Rain = 0
KAHS 041234Z 36006KT 12/09 A3008 RMK A01 T01210090  RH  081%=      5-min Rain = 0
KAHS 041235Z 36006KT 12/09 A3008 RMK A01 T01210089  RH  081%=      5-min Rain = 0
KAHS 041236Z 36007KT 12/09 A3008 RMK A01 T01210089  RH  081%=      5-min Rain = 0
KAHS 041237Z 36006KT 12/09 A3008 RMK A01 T01220090  RH  081%=      5-min Rain = 0
KAHS 041238Z 35009KT 12/09 A3008 RMK A01 T01210089  RH  081%=      5-min Rain = 0
KAHS 041239Z 36007KT 12/09 A3008 RMK A01 T01210088  RH  080%=      5-min Rain = 0
KAHS 041240Z 00008KT 12/09 A3008 RMK A01 T01210088  RH  080%=      5-min Rain = 0
KAHS 041241Z 01009KT 12/09 A3008 RMK A01 T01220089  RH  080%=      5-min Rain = 0
KAHS 041242Z 00008KT 12/09 A3008 RMK A01 T01220088  RH  080%=      5-min Rain = 0
KAHS 041243Z 35006KT 12/09 A3008 RMK A01 T01220089  RH  080%=      5-min Rain = 0
KAHS 041244Z 36010KT 12/09 A3008 RMK A01 T01220089  RH  080%=      5-min Rain = 0
KAHS 041245Z 36007KT 12/09 A3008 RMK A01 T01210088  RH  080%=      5-min Rain = 0
KAHS 041246Z 36010KT 12/09 A3008 RMK A01 T01220088  RH  080%=      5-min Rain = 0
KAHS 041247Z 00008KT 12/09 A3008 RMK A01 T01220088  RH  080%=      5-min Rain = 0
KAHS 041248Z 36006KT 12/09 A3008 RMK A01 T01220088  RH  080%=      5-min Rain = 0
KAHS 041249Z 35007KT 12/09 A3008 RMK A01 T01220089  RH  080%=      5-min Rain = 0
KAHS 041250Z 35007KT 12/09 A3008 RMK A01 T01220089  RH  080%=      5-min Rain = 0
KAHS 041251Z 35008KT 12/09 A3008 RMK A01 T01220089  RH  080%=      5-min Rain = 0
KAHS 041252Z 36006KT 12/09 A3009 RMK A01 T01220089  RH  080%=      5-min Rain = 0
KAHS 041253Z 35008KT 12/09 A3009 RMK A01 T01220089  RH  080%=      5-min Rain = 0
KAHS 041254Z 35010KT 12/09 A3009 RMK A01 T01220088  RH  080%=      5-min Rain = 0
KAHS 041255Z 36009KT 12/09 A3009 RMK A01 T01220088  RH  080%=      5-min Rain = 0
KAHS 041256Z 36008KT 12/09 A3009 RMK A01 T01220088  RH  080%=      5-min Rain = 0
KAHS 041257Z 36008KT 12/09 A3009 RMK A01 T01220088  RH  080%=      5-min Rain = 0
KAHS 041258Z 36007KT 12/09 A3009 RMK A01 T01220088  RH  080%=      5-min Rain = 0
KAHS 041259Z 36006KT 12/09 A3009 RMK A01 T01220088  RH  080%=      5-min Rain = 0
KAHS 041300Z 00006KT 12/09 A3009 RMK A01 T01220088  RH  080%=      5-min Rain = 0
KAHS 041301Z 00007KT 12/09 A3009 RMK A01 T01220089  RH  080%=      5-min Rain = 0
KAHS 041302Z 36005KT 12/09 A3009 RMK A01 T01220089  RH  080%=      5-min Rain = 0
KAHS 041303Z 36005KT 12/09 A3009 RMK A01 T01220090  RH  081%=      5-min Rain = 0
KAHS 041304Z 35007KT 12/09 A3009 RMK A01 T01220090  RH  081%=      5-min Rain = 0
KAHS 041305Z 00005KT 12/09 A3009 RMK A01 T01220089  RH  080%=      5-min Rain = 0
KAHS 041306Z 35007KT 12/09 A3009 RMK A01 T01220089  RH  080%=      5-min Rain = 0
KAHS 041307Z 35006KT 12/09 A3009 RMK A01 T01220089  RH  080%=      5-min Rain = 0
KAHS 041308Z 35008KT 12/09 A3009 RMK A01 T01220089  RH  080%=      5-min Rain = 0
KAHS 041309Z 36008KT 12/09 A3009 RMK A01 T01220087  RH  079%=      5-min Rain = 0
KAHS 041310Z 35008KT 12/09 A3009 RMK A01 T01220087  RH  079%=      5-min Rain = 0
KAHS 041311Z 35007KT 12/09 A3009 RMK A01 T01220087  RH  079%=      5-min Rain = 0
KAHS 041312Z 36007KT 12/09 A3009 RMK A01 T01220087  RH  079%=      5-min Rain = 0
KAHS 041313Z 35005KT 12/09 A3009 RMK A01 T01220088  RH  079%=      5-min Rain = 0
KAHS 041314Z 34005KT 12/09 A3009 RMK A01 T01220088  RH  080%=      5-min Rain = 0
KAHS 041315Z 34005KT 12/09 A301 RMK A01 T01220089  RH  080%=      5-min Rain = 0
KAHS 041316Z 35008KT 12/09 A301 RMK A01 T01220089  RH  080%=      5-min Rain = 0
KAHS 041317Z 35006KT 12/09 A301 RMK A01 T01220088  RH  079%=      5-min Rain = 0
KAHS 041318Z 35005KT 12/09 A301 RMK A01 T01220088  RH  080%=      5-min Rain = 0
KAHS 041319Z 35006KT 12/09 A301 RMK A01 T01220088  RH  080%=      5-min Rain = 0
KAHS 041320Z 35006KT 12/09 A301 RMK A01 T01230089  RH  080%=      5-min Rain = 0
KAHS 041321Z 35006KT 12/09 A301 RMK A01 T01230089  RH  080%=      5-min Rain = 0
KAHS 041322Z 35007KT 12/09 A301 RMK A01 T01230088  RH  079%=      5-min Rain = 0
KAHS 041323Z 35009KT 12/09 A301 RMK A01 T01220087  RH  079%=      5-min Rain = 0
KAHS 041324Z 35009KT 12/09 A301 RMK A01 T01220087  RH  079%=      5-min Rain = 0
KAHS 041325Z 35008KT 12/09 A301 RMK A01 T01220086  RH  079%=      5-min Rain = 0
KAHS 041326Z 34008KT 12/09 A301 RMK A01 T01230087  RH  079%=      5-min Rain = 0
KAHS 041327Z 35009KT 12/09 A301 RMK A01 T01230087  RH  079%=      5-min Rain = 0
KAHS 041328Z 35008KT 12/09 A301 RMK A01 T01230087  RH  079%=      5-min Rain = 0
KAHS 041329Z 35009KT 12/09 A301 RMK A01 T01230087  RH  079%=      5-min Rain = 0
KAHS 041330Z 35007KT 12/09 A301 RMK A01 T01230087  RH  079%=      5-min Rain = 0
KAHS 041331Z 35008KT 12/09 A301 RMK A01 T01230088  RH  079%=      5-min Rain = 0
KAHS 041332Z 36008KT 12/09 A301 RMK A01 T01230087  RH  079%=      5-min Rain = 0
KAHS 041333Z 35007KT 12/09 A301 RMK A01 T01230087  RH  078%=      5-min Rain = 0
KAHS 041334Z 35007KT 12/09 A301 RMK A01 T01240087  RH  079%=      5-min Rain = 0
KAHS 041335Z 35008KT 12/09 A301 RMK A01 T01240087  RH  078%=      5-min Rain = 0
KAHS 041336Z 35007KT 12/09 A301 RMK A01 T01240087  RH  078%=      5-min Rain = 0
KAHS 041337Z 00006KT 12/09 A301 RMK A01 T01240088  RH  079%=      5-min Rain = 0
KAHS 041338Z 36008KT 12/09 A301 RMK A01 T01240089  RH  079%=      5-min Rain = 0
KAHS 041339Z 35010KT 12/09 A301 RMK A01 T01240088  RH  078%=      5-min Rain = 0
KAHS 041340Z 36009KT 12/09 A301 RMK A01 T01240088  RH  078%=      5-min Rain = 0
KAHS 041341Z 35008KT 12/09 A301 RMK A01 T01240087  RH  078%=      5-min Rain = 0
KAHS 041342Z 35008KT 12/09 A301 RMK A01 T01240087  RH  078%=      5-min Rain = 0
KAHS 041343Z 35007KT 12/09 A301 RMK A01 T01240087  RH  078%=      5-min Rain = 0
KAHS 041344Z 36008KT 13/09 A301 RMK A01 T01250088  RH  078%=      5-min Rain = 0
KAHS 041345Z 35008KT 13/09 A301 RMK A01 T01250088  RH  078%=      5-min Rain = 0
KAHS 041346Z 35009KT 13/09 A301 RMK A01 T01250088  RH  078%=      5-min Rain = 0
KAHS 041347Z 35008KT 13/09 A301 RMK A01 T01250088  RH  078%=      5-min Rain = 0
KAHS 041348Z 01008KT 13/09 A301 RMK A01 T01260088  RH  078%=      5-min Rain = 0
KAHS 041349Z 00007KT 13/09 A301 RMK A01 T01260088  RH  078%=      5-min Rain = 0
KAHS 041350Z 00007KT 13/09 A301 RMK A01 T01260088  RH  078%=      5-min Rain = 0
KAHS 041351Z 36008KT 13/09 A301 RMK A01 T01270089  RH  078%=      5-min Rain = 0
KAHS 041352Z 36009KT 13/09 A301 RMK A01 T01270089  RH  078%=      5-min Rain = 0
KAHS 041353Z 35009KT 13/09 A301 RMK A01 T01270088  RH  077%=      5-min Rain = 0
KAHS 041354Z 35010KT 13/09 A301 RMK A01 T01270088  RH  077%=      5-min Rain = 0
KAHS 041355Z 36011KT 13/09 A301 RMK A01 T01270087  RH  077%=      5-min Rain = 0
KAHS 041356Z 36010G15KT 13/09 A301 RMK A01 T01270087  RH  077%=      5-min Rain = 0
KAHS 041357Z 00010G15KT 13/09 A301 RMK A01 T01280088  RH  077%=      5-min Rain = 0
KAHS 041358Z 35012KT 13/09 A301 RMK A01 T01270087  RH  076%=      5-min Rain = 0
KAHS 041359Z 00010KT 13/09 A301 RMK A01 T01280086  RH  076%=      5-min Rain = 0
KAHS 041400Z 01010KT 13/09 A301 RMK A01 T01280086  RH  076%=      5-min Rain = 0
KAHS 041401Z 36008KT 13/09 A301 RMK A01 T01280087  RH  076%=      5-min Rain = 0
KAHS 041402Z 00010KT 13/09 A301 RMK A01 T01290087  RH  076%=      5-min Rain = 0
KAHS 041403Z 00010KT 13/09 A301 RMK A01 T01290088  RH  076%=      5-min Rain = 0
KAHS 041404Z 35009KT 13/09 A3011 RMK A01 T01300088  RH  076%=      5-min Rain = 0
KAHS 041405Z 35008KT 13/09 A301 RMK A01 T01300089  RH  076%=      5-min Rain = 0
KAHS 041406Z 00008KT 13/09 A301 RMK A01 T01300089  RH  076%=      5-min Rain = 0
KAHS 041407Z 35011KT 13/09 A301 RMK A01 T01310090  RH  076%=      5-min Rain = 0
KAHS 041408Z 36009KT 13/09 A3011 RMK A01 T01300088  RH  075%=      5-min Rain = 0
KAHS 041409Z 01008KT 13/09 A3011 RMK A01 T01310089  RH  076%=      5-min Rain = 0
KAHS 041410Z 01009KT 13/09 A3011 RMK A01 T01310089  RH  075%=      5-min Rain = 0
KAHS 041411Z 36011KT 13/09 A3011 RMK A01 T01320090  RH  076%=      5-min Rain = 0
KAHS 041412Z 35013KT 13/09 A3011 RMK A01 T01320089  RH  075%=      5-min Rain = 0
KAHS 041413Z 35009KT 13/09 A3011 RMK A01 T01310088  RH  075%=      5-min Rain = 0
KAHS 041414Z 36010KT 13/09 A3011 RMK A01 T01320088  RH  075%=      5-min Rain = 0
KAHS 041415Z 36011G16KT 13/09 A3011 RMK A01 T01320088  RH  075%=      5-min Rain = 0
KAHS 041416Z 35013KT 13/09 A3011 RMK A01 T01310087  RH  074%=      5-min Rain = 0
KAHS 041417Z 35010G15KT 13/09 A3011 RMK A01 T01310086  RH  074%=      5-min Rain = 0
KAHS 041418Z 36009KT 13/09 A3011 RMK A01 T01310088  RH  075%=      5-min Rain = 0
KAHS 041419Z 36010KT 13/09 A3011 RMK A01 T01320090  RH  076%=      5-min Rain = 0
KAHS 041420Z 35009KT 13/09 A3011 RMK A01 T01320089  RH  075%=      5-min Rain = 0
KAHS 041421Z 36010KT 13/09 A3011 RMK A01 T01330091  RH  076%=      5-min Rain = 0
KAHS 041422Z 35009KT 13/09 A3011 RMK A01 T01330091  RH  075%=      5-min Rain = 0
KAHS 041423Z 35008KT 13/09 A3011 RMK A01 T01330090  RH  075%=      5-min Rain = 0
KAHS 041424Z 35011KT 13/09 A3011 RMK A01 T01330090  RH  075%=      5-min Rain = 0
KAHS 041425Z 00010KT 13/09 A3011 RMK A01 T01330089  RH  075%=      5-min Rain = 0
KAHS 041426Z 01008KT 13/09 A3011 RMK A01 T01330090  RH  075%=      5-min Rain = 0
KAHS 041427Z 01012KT 13/09 A3011 RMK A01 T01340090  RH  075%=      5-min Rain = 0
KAHS 041428Z 01011KT 13/09 A3011 RMK A01 T01340091  RH  075%=      5-min Rain = 0
KAHS 041429Z 01012KT 13/09 A3011 RMK A01 T01340089  RH  074%=      5-min Rain = 0
KAHS 041430Z 01008KT 13/09 A3011 RMK A01 T01340089  RH  074%=      5-min Rain = 0
KAHS 041431Z 36009KT 13/09 A3011 RMK A01 T01340090  RH  075%=      5-min Rain = 0
KAHS 041432Z 36009KT 13/09 A3011 RMK A01 T01340090  RH  074%=      5-min Rain = 0
KAHS 041433Z 36009KT 14/09 A3011 RMK A01 T01350091  RH  074%=      5-min Rain = 0
KAHS 041434Z 35011KT 14/09 A3011 RMK A01 T01350091  RH  074%=      5-min Rain = 0
KAHS 041435Z 35009KT 14/09 A3011 RMK A01 T01350090  RH  074%=      5-min Rain = 0
KAHS 041436Z 35008KT 14/09 A3011 RMK A01 T01360091  RH  074%=      5-min Rain = 0
KAHS 041437Z 36011G16KT 14/09 A3011 RMK A01 T01370091  RH  074%=      5-min Rain = 0
KAHS 041438Z 36011KT 14/09 A3011 RMK A01 T01370090  RH  073%=      5-min Rain = 0
KAHS 041439Z 00010KT 14/09 A3011 RMK A01 T01370089  RH  073%=      5-min Rain = 0
KAHS 041440Z 01008KT 14/09 A3011 RMK A01 T01370090  RH  073%=      5-min Rain = 0
KAHS 041441Z 00008KT 14/09 A3011 RMK A01 T01380092  RH  073%=      5-min Rain = 0
KAHS 041442Z 35008KT 14/09 A3011 RMK A01 T01390092  RH  073%=      5-min Rain = 0
KAHS 041443Z 01011KT 14/09 A3011 RMK A01 T01390091  RH  073%=      5-min Rain = 0
KAHS 041444Z 01010KT 14/09 A3011 RMK A01 T01380088  RH  071%=      5-min Rain = 0
KAHS 041445Z 00010KT 14/09 A3011 RMK A01 T01390088  RH  072%=      5-min Rain = 0
KAHS 041446Z 02013KT 14/09 A3011 RMK A01 T01390089  RH  072%=      5-min Rain = 0
KAHS 041447Z 01010KT 14/09 A3011 RMK A01 T01380087  RH  071%=      5-min Rain = 0
KAHS 041448Z 01012KT 14/09 A3011 RMK A01 T01390089  RH  072%=      5-min Rain = 0
KAHS 041449Z 02011KT 14/09 A3012 RMK A01 T01390087  RH  071%=      5-min Rain = 0
KAHS 041450Z 01011KT 14/09 A3012 RMK A01 T01390089  RH  072%=      5-min Rain = 0
KAHS 041451Z 02009KT 14/09 A3012 RMK A01 T01400090  RH  072%=      5-min Rain = 0
KAHS 041452Z 01010KT 14/09 A3012 RMK A01 T01420093  RH  072%=      5-min Rain = 0
KAHS 041453Z 00011KT 14/09 A3012 RMK A01 T01430094  RH  072%=      5-min Rain = 0
KAHS 041454Z 35010KT 14/09 A3012 RMK A01 T01430091  RH  071%=      5-min Rain = 0
KAHS 041455Z 36009KT 14/09 A3012 RMK A01 T01420091  RH  071%=      5-min Rain = 0
KAHS 041456Z 36010G15KT 14/09 A3012 RMK A01 T01420091  RH  072%=      5-min Rain = 0
KAHS 041457Z 36012KT 14/09 A3012 RMK A01 T01410091  RH  072%=      5-min Rain = 0
KAHS 041458Z 35010KT 14/09 A3012 RMK A01 T01400088  RH  071%=      5-min Rain = 0
KAHS 041459Z 35012KT 14/09 A3012 RMK A01 T01390089  RH  072%=      5-min Rain = 0
KAHS 041500Z 35011KT 14/09 A3012 RMK A01 T01390090  RH  072%=      5-min Rain = 0
KAHS 041501Z 00011KT 14/09 A3012 RMK A01 T01390090  RH  072%=      5-min Rain = 0
KAHS 041502Z 00011KT 14/09 A3012 RMK A01 T01390089  RH  072%=      5-min Rain = 0
KAHS 041503Z 35011KT 14/09 A3012 RMK A01 T01390089  RH  072%=      5-min Rain = 0
KAHS 041504Z 35011KT 14/09 A3012 RMK A01 T01390089  RH  072%=      5-min Rain = 0
KAHS 041505Z 35011KT 14/09 A3012 RMK A01 T01390089  RH  072%=      5-min Rain = 0
KAHS 041506Z 36011KT 14/09 A3012 RMK A01 T01390089  RH  072%=      5-min Rain = 0
KAHS 041507Z 36009KT 14/09 A3013 RMK A01 T01390089  RH  072%=      5-min Rain = 0
KAHS 041508Z 01009KT 14/09 A3013 RMK A01 T01380089  RH  072%=      5-min Rain = 0
KAHS 041509Z 35011KT 14/09 A3013 RMK A01 T01390091  RH  073%=      5-min Rain = 0
KAHS 041510Z 36009KT 14/09 A3013 RMK A01 T01390090  RH  072%=      5-min Rain = 0
KAHS 041511Z 36010KT 14/09 A3013 RMK A01 T01390090  RH  072%=      5-min Rain = 0
KAHS 041512Z 36012KT 14/09 A3013 RMK A01 T01390090  RH  072%=      5-min Rain = 0
KAHS 041513Z 00010KT 14/09 A3013 RMK A01 T01380088  RH  071%=      5-min Rain = 0
KAHS 041514Z 35010G15KT 14/09 A3013 RMK A01 T01390089  RH  072%=      5-min Rain = 0
KAHS 041515Z 35011KT 14/09 A3013 RMK A01 T01380088  RH  072%=      5-min Rain = 0
KAHS 041516Z 36010KT 14/09 A3013 RMK A01 T01380089  RH  072%=      5-min Rain = 0
KAHS 041517Z 00011KT 14/09 A3013 RMK A01 T01370087  RH  072%=      5-min Rain = 0
KAHS 041518Z 00010KT 14/09 A3013 RMK A01 T01370086  RH  071%=      5-min Rain = 0
KAHS 041519Z 35008KT 14/09 A3013 RMK A01 T01370088  RH  072%=      5-min Rain = 0
KAHS 041520Z 35012KT 14/09 A3013 RMK A01 T01380089  RH  072%=      5-min Rain = 0
KAHS 041521Z 35010KT 14/09 A3013 RMK A01 T01380087  RH  071%=      5-min Rain = 0
KAHS 041522Z 36007KT 14/09 A3013 RMK A01 T01380088  RH  072%=      5-min Rain = 0
KAHS 041523Z 00008KT 14/09 A3013 RMK A01 T01390091  RH  073%=      5-min Rain = 0
KAHS 041524Z 01011KT 14/09 A3013 RMK A01 T01390091  RH  073%=      5-min Rain = 0
KAHS 041525Z 00010KT 14/09 A3013 RMK A01 T01390089  RH  072%=      5-min Rain = 0
KAHS 041526Z 00009KT 14/09 A3013 RMK A01 T01400090  RH  072%=      5-min Rain = 0
KAHS 041527Z 01012KT 14/09 A3013 RMK A01 T01400090  RH  072%=      5-min Rain = 0
KAHS 041528Z 01009KT 14/09 A3013 RMK A01 T01400089  RH  071%=      5-min Rain = 0
KAHS 041529Z 02008KT 14/09 A3013 RMK A01 T01400090  RH  072%=      5-min Rain = 0
KAHS 041530Z 01011KT 14/09 A3013 RMK A01 T01400089  RH  071%=      5-min Rain = 0
KAHS 041531Z 01006KT 14/09 A3013 RMK A01 T01400088  RH  071%=      5-min Rain = 0
KAHS 041532Z 35007KT 14/09 A3013 RMK A01 T01400090  RH  072%=      5-min Rain = 0
KAHS 041533Z 36011KT 14/09 A3013 RMK A01 T01400088  RH  071%=      5-min Rain = 0
KAHS 041534Z 36010KT 14/09 A3013 RMK A01 T01400089  RH  071%=      5-min Rain = 0
KAHS 041535Z 00008KT 14/09 A3013 RMK A01 T01400088  RH  071%=      5-min Rain = 0
KAHS 041536Z 01008KT 14/09 A3013 RMK A01 T01410091  RH  072%=      5-min Rain = 0
KAHS 041537Z 01011KT 14/09 A3013 RMK A01 T01420091  RH  071%=      5-min Rain = 0
KAHS 041538Z 01010KT 14/09 A3013 RMK A01 T01410087  RH  070%=      5-min Rain = 0
KAHS 041539Z 02009KT 14/09 A3013 RMK A01 T01410090  RH  071%=      5-min Rain = 0
KAHS 041540Z 03008KT 14/09 A3013 RMK A01 T01410089  RH  071%=      5-min Rain = 0
KAHS 041541Z 02012KT 14/09 A3013 RMK A01 T01420090  RH  071%=      5-min Rain = 0
KAHS 041542Z 01009KT 14/09 A3013 RMK A01 T01410086  RH  070%=      5-min Rain = 0
KAHS 041543Z 02010KT 14/09 A3013 RMK A01 T01410086  RH  070%=      5-min Rain = 0
KAHS 041544Z 02007KT 14/09 A3013 RMK A01 T01410087  RH  070%=      5-min Rain = 0
KAHS 041545Z 03009KT 14/09 A3013 RMK A01 T01420090  RH  071%=      5-min Rain = 0
KAHS 041546Z 01009KT 14/09 A3013 RMK A01 T01420089  RH  071%=      5-min Rain = 0
KAHS 041547Z 02008KT 14/09 A3013 RMK A01 T01420090  RH  071%=      5-min Rain = 0
KAHS 041548Z 02009KT 14/09 A3013 RMK A01 T01420087  RH  070%=      5-min Rain = 0
KAHS 041549Z 00008KT 14/09 A3013 RMK A01 T01410087  RH  070%=      5-min Rain = 0
KAHS 041550Z 01010KT 14/09 A3013 RMK A01 T01420088  RH  070%=      5-min Rain = 0
KAHS 041551Z 01009KT 14/09 A3014 RMK A01 T01420089  RH  070%=      5-min Rain = 0
KAHS 041552Z 01007KT 14/09 A3014 RMK A01 T01430091  RH  071%=      5-min Rain = 0
KAHS 041553Z 03008KT 15/09 A3014 RMK A01 T01450094  RH  072%=      5-min Rain = 0
KAHS 041554Z 02005KT 15/09 A3014 RMK A01 T01450091  RH  070%=      5-min Rain = 0
KAHS 041555Z 03007KT 15/09 A3014 RMK A01 T01460092  RH  070%=      5-min Rain = 0
KAHS 041556Z 02006KT 15/09 A3014 RMK A01 T01460091  RH  070%=      5-min Rain = 0
KAHS 041557Z 02009KT 15/09 A3014 RMK A01 T01470094  RH  070%=      5-min Rain = 0
KAHS 041558Z 02009KT 15/09 A3014 RMK A01 T01460089  RH  069%=      5-min Rain = 0
KAHS 041559Z 02010KT 15/09 A3014 RMK A01 T01450089  RH  069%=      5-min Rain = 0
KAHS 041600Z 03008KT 15/09 A3014 RMK A01 T01450088  RH  069%=      5-min Rain = 0
KAHS 041601Z 03008KT 15/09 A3014 RMK A01 T01450089  RH  069%=      5-min Rain = 0
KAHS 041602Z 36008KT 15/09 A3014 RMK A01 T01460091  RH  070%=      5-min Rain = 0
KAHS 041603Z 00008KT 15/09 A3014 RMK A01 T01470093  RH  070%=      5-min Rain = 0
KAHS 041604Z 01010KT 15/09 A3014 RMK A01 T01480092  RH  069%=      5-min Rain = 0
KAHS 041605Z 02010KT 15/09 A3014 RMK A01 T01470088  RH  068%=      5-min Rain = 0
KAHS 041606Z 03009KT 15/09 A3014 RMK A01 T01460086  RH  067%=      5-min Rain = 0
KAHS 041607Z 03008KT 15/09 A3014 RMK A01 T01450086  RH  068%=      5-min Rain = 0
KAHS 041608Z 03007KT 15/09 A3014 RMK A01 T01450086  RH  068%=      5-min Rain = 0
KAHS 041609Z 03008KT 15/09 A3014 RMK A01 T01450087  RH  068%=      5-min Rain = 0
KAHS 041610Z 03008KT 15/09 A3014 RMK A01 T01460089  RH  069%=      5-min Rain = 0
KAHS 041611Z 01006KT 15/09 A3014 RMK A01 T01460089  RH  068%=      5-min Rain = 0
KAHS 041612Z 03008KT 15/09 A3014 RMK A01 T01480091  RH  069%=      5-min Rain = 0
KAHS 041613Z 01008KT 15/09 A3014 RMK A01 T01480091  RH  068%=      5-min Rain = 0
KAHS 041614Z 02009G15KT 15/09 A3014 RMK A01 T01480088  RH  067%=      5-min Rain = 0
KAHS 041615Z 03010KT 15/09 A3014 RMK A01 T01470088  RH  067%=      5-min Rain = 0
KAHS 041616Z 01007KT 15/09 A3014 RMK A01 T01470088  RH  068%=      5-min Rain = 0
KAHS 041617Z 01008KT 15/09 A3014 RMK A01 T01470088  RH  067%=      5-min Rain = 0
KAHS 041618Z 00010KT 15/09 A3014 RMK A01 T01470088  RH  067%=      5-min Rain = 0
KAHS 041619Z 01007KT 15/09 A3014 RMK A01 T01480088  RH  067%=      5-min Rain = 0
KAHS 041620Z 02005KT 15/09 A3014 RMK A01 T01480090  RH  068%=      5-min Rain = 0
KAHS 041621Z 03009KT 15/09 A3014 RMK A01 T01500091  RH  068%=      5-min Rain = 0
KAHS 041622Z 03009KT 15/09 A3014 RMK A01 T01500090  RH  067%=      5-min Rain = 0
KAHS 041623Z 03008KT 15/09 A3014 RMK A01 T01490087  RH  067%=      5-min Rain = 0
KAHS 041624Z 02007KT 15/09 A3014 RMK A01 T01500093  RH  069%=      5-min Rain = 0
KAHS 041625Z 02007KT 15/09 A3015 RMK A01 T01500092  RH  068%=      5-min Rain = 0
KAHS 041626Z 03011KT 15/09 A3014 RMK A01 T01500091  RH  067%=      5-min Rain = 0
KAHS 041627Z 04010KT 15/09 A3014 RMK A01 T01490088  RH  066%=      5-min Rain = 0
KAHS 041628Z 02010KT 15/09 A3014 RMK A01 T01490089  RH  067%=      5-min Rain = 0
KAHS 041629Z 03009G14KT 15/09 A3014 RMK A01 T01500088  RH  067%=      5-min Rain = 0
KAHS 041630Z 02009KT 15/09 A3014 RMK A01 T01500088  RH  066%=      5-min Rain = 0
KAHS 041631Z 02010KT 15/09 A3014 RMK A01 T01510090  RH  067%=      5-min Rain = 0
KAHS 041632Z 03010KT 15/09 A3014 RMK A01 T01500087  RH  066%=      5-min Rain = 0
KAHS 041633Z 02009KT 15/09 A3014 RMK A01 T01500089  RH  067%=      5-min Rain = 0
KAHS 041634Z 02011KT 15/09 A3014 RMK A01 T01510090  RH  067%=      5-min Rain = 0
KAHS 041635Z 01009KT 15/09 A3014 RMK A01 T01520091  RH  067%=      5-min Rain = 0
KAHS 041636Z 01010KT 15/09 A3014 RMK A01 T01530092  RH  067%=      5-min Rain = 0
KAHS 041637Z 01006KT 15/09 A3014 RMK A01 T01530091  RH  066%=      5-min Rain = 0
KAHS 041638Z 01006KT 16/10 A3014 RMK A01 T01550095  RH  067%=      5-min Rain = 0
KAHS 041639Z 01010KT 16/09 A3014 RMK A01 T01550092  RH  066%=      5-min Rain = 0
KAHS 041640Z 02008KT 15/09 A3014 RMK A01 T01540089  RH  065%=      5-min Rain = 0
KAHS 041641Z 01010KT 15/09 A3014 RMK A01 T01530090  RH  066%=      5-min Rain = 0
KAHS 041642Z 01009KT 15/09 A3015 RMK A01 T01530089  RH  065%=      5-min Rain = 0
KAHS 041643Z 01009KT 15/09 A3015 RMK A01 T01530089  RH  066%=      5-min Rain = 0
KAHS 041644Z 02011KT 15/09 A3015 RMK A01 T01530089  RH  065%=      5-min Rain = 0
KAHS 041645Z 02010KT 15/09 A3015 RMK A01 T01520087  RH  065%=      5-min Rain = 0
KAHS 041646Z 03008KT 15/09 A3015 RMK A01 T01530088  RH  065%=      5-min Rain = 0
KAHS 041647Z 01008KT 15/09 A3015 RMK A01 T01540092  RH  066%=      5-min Rain = 0
KAHS 041648Z 01011KT 15/09 A3015 RMK A01 T01540089  RH  065%=      5-min Rain = 0
KAHS 041649Z 01010KT 15/09 A3015 RMK A01 T01540088  RH  065%=      5-min Rain = 0
KAHS 041650Z 01011KT 15/09 A3015 RMK A01 T01530087  RH  065%=      5-min Rain = 0
KAHS 041651Z 01008KT 15/09 A3015 RMK A01 T01530087  RH  065%=      5-min Rain = 0
KAHS 041652Z 35008KT 15/09 A3015 RMK A01 T01540088  RH  065%=      5-min Rain = 0
KAHS 041653Z 36008KT 16/09 A3015 RMK A01 T01550091  RH  066%=      5-min Rain = 0
KAHS 041654Z 35009KT 16/09 A3015 RMK A01 T01570093  RH  066%=      5-min Rain = 0
KAHS 041655Z 36010KT 16/09 A3015 RMK A01 T01560089  RH  064%=      5-min Rain = 0
KAHS 041656Z 01009KT 16/09 A3015 RMK A01 T01550087  RH  064%=      5-min Rain = 0
KAHS 041657Z 35009KT 16/09 A3015 RMK A01 T01560092  RH  066%=      5-min Rain = 0
KAHS 041658Z 01008KT 16/09 A3015 RMK A01 T01570089  RH  064%=      5-min Rain = 0
KAHS 041659Z 01007KT 16/09 A3015 RMK A01 T01560087  RH  064%=      5-min Rain = 0
KAHS 041700Z 01009KT 16/09 A3015 RMK A01 T01550086  RH  063%=      5-min Rain = 0
KAHS 041701Z 02008G13KT 16/09 A3015 RMK A01 T01550089  RH  065%=      5-min Rain = 0
KAHS 041702Z 02012KT 16/09 A3015 RMK A01 T01550089  RH  065%=      5-min Rain = 0
KAHS 041703Z 03010KT 15/09 A3015 RMK A01 T01540087  RH  064%=      5-min Rain = 0
KAHS 041704Z 03009KT 15/09 A3015 RMK A01 T01520085  RH  064%=      5-min Rain = 0
KAHS 041705Z 04008KT 15/09 A3015 RMK A01 T01530089  RH  066%=      5-min Rain = 0
KAHS 041706Z 02008KT 15/09 A3015 RMK A01 T01540093  RH  067%=      5-min Rain = 0
KAHS 041707Z 35010KT 16/09 A3015 RMK A01 T01550091  RH  066%=      5-min Rain = 0
KAHS 041708Z 35011KT 15/09 A3015 RMK A01 T01540086  RH  064%=      5-min Rain = 0
KAHS 041709Z 36010KT 15/09 A3015 RMK A01 T01530085  RH  064%=      5-min Rain = 0
KAHS 041710Z 01007KT 15/09 A3015 RMK A01 T01540087  RH  064%=      5-min Rain = 0
KAHS 041711Z 00006KT 16/09 A3015 RMK A01 T01550091  RH  065%=      5-min Rain = 0
KAHS 041712Z 02011KT 16/09 A3015 RMK A01 T01570092  RH  065%=      5-min Rain = 0
KAHS 041713Z 01011KT 16/09 A3015 RMK A01 T01570089  RH  064%=      5-min Rain = 0
KAHS 041714Z 01008KT 16/09 A3015 RMK A01 T01560086  RH  063%=      5-min Rain = 0
KAHS 041715Z 02010KT 16/09 A3014 RMK A01 T01560087  RH  064%=      5-min Rain = 0
KAHS 041716Z 02009KT 16/09 A3014 RMK A01 T01560088  RH  064%=      5-min Rain = 0
KAHS 041717Z 02009KT 16/09 A3014 RMK A01 T01570091  RH  065%=      5-min Rain = 0
KAHS 041718Z 03009KT 16/09 A3014 RMK A01 T01570090  RH  064%=      5-min Rain = 0
KAHS 041719Z 02010KT 16/09 A3014 RMK A01 T01580091  RH  064%=      5-min Rain = 0
KAHS 041720Z 01011KT 16/09 A3014 RMK A01 T01580091  RH  064%=      5-min Rain = 0
KAHS 041721Z 00008G13KT 16/09 A3014 RMK A01 T01570088  RH  063%=      5-min Rain = 0
KAHS 041722Z 02007KT 16/09 A3014 RMK A01 T01570090  RH  064%=      5-min Rain = 0
KAHS 041723Z 03005KT 16/09 A3014 RMK A01 T01590094  RH  065%=      5-min Rain = 0
KAHS 041724Z 03008KT 16/09 A3014 RMK A01 T01590092  RH  064%=      5-min Rain = 0
KAHS 041725Z 02009KT 16/09 A3014 RMK A01 T01580089  RH  063%=      5-min Rain = 0
KAHS 041726Z 36008KT 16/09 A3014 RMK A01 T01580091  RH  064%=      5-min Rain = 0
KAHS 041727Z 35010KT 16/09 A3014 RMK A01 T01590091  RH  064%=      5-min Rain = 0
KAHS 041728Z 35007KT 16/09 A3014 RMK A01 T01580088  RH  063%=      5-min Rain = 0
KAHS 041729Z 36007KT 16/09 A3014 RMK A01 T01590089  RH  063%=      5-min Rain = 0
KAHS 041730Z 01008KT 16/09 A3014 RMK A01 T01600092  RH  064%=      5-min Rain = 0
KAHS 041731Z 35008KT 16/09 A3014 RMK A01 T01600089  RH  063%=      5-min Rain = 0
KAHS 041732Z 00012KT 16/09 A3014 RMK A01 T01610092  RH  064%=      5-min Rain = 0
KAHS 041733Z 01011KT 16/09 A3014 RMK A01 T01600088  RH  062%=      5-min Rain = 0
KAHS 041734Z 00010KT 16/09 A3014 RMK A01 T01590087  RH  062%=      5-min Rain = 0
KAHS 041735Z 35010KT 16/09 A3014 RMK A01 T01590089  RH  063%=      5-min Rain = 0
KAHS 041736Z 00008KT 16/09 A3014 RMK A01 T01590088  RH  063%=      5-min Rain = 0
KAHS 041737Z 01007KT 16/09 A3013 RMK A01 T01590086  RH  062%=      5-min Rain = 0
KAHS 041738Z 35008KT 16/09 A3013 RMK A01 T01590089  RH  063%=      5-min Rain = 0
KAHS 041739Z 36010KT 16/09 A3013 RMK A01 T01600090  RH  063%=      5-min Rain = 0
KAHS 041740Z 35009KT 16/08 A3013 RMK A01 T01580084  RH  061%=      5-min Rain = 0
KAHS 041741Z 00008KT 16/09 A3013 RMK A01 T01570086  RH  063%=      5-min Rain = 0
KAHS 041742Z 00008KT 16/09 A3013 RMK A01 T01590091  RH  064%=      5-min Rain = 0
KAHS 041743Z 00009KT 16/09 A3013 RMK A01 T01600090  RH  063%=      5-min Rain = 0
KAHS 041744Z 00008KT 16/09 A3013 RMK A01 T01600091  RH  063%=      5-min Rain = 0
KAHS 041745Z 00009KT 16/09 A3013 RMK A01 T01600090  RH  063%=      5-min Rain = 0
KAHS 041746Z 02008KT 16/09 A3013 RMK A01 T01600088  RH  062%=      5-min Rain = 0
KAHS 041747Z 03007KT 16/09 A3013 RMK A01 T01590086  RH  062%=      5-min Rain = 0
KAHS 041748Z 03008KT 16/09 A3013 RMK A01 T01600089  RH  063%=      5-min Rain = 0
KAHS 041749Z 02006KT 16/09 A3013 RMK A01 T01610092  RH  063%=      5-min Rain = 0
KAHS 041750Z 35005KT 16/09 A3013 RMK A01 T01630094  RH  064%=      5-min Rain = 0
KAHS 041751Z 00004KT 16/09 A3013 RMK A01 T01640092  RH  063%=      5-min Rain = 0
KAHS 041752Z 00007KT 17/10 A3013 RMK A01 T01660095  RH  063%=      5-min Rain = 0
KAHS 041753Z 03008KT 17/09 A3013 RMK A01 T01670094  RH  062%=      5-min Rain = 0
KAHS 041754Z 03008KT 17/09 A3013 RMK A01 T01660091  RH  061%=      5-min Rain = 0
KAHS 041755Z 03010KT 16/09 A3012 RMK A01 T01640088  RH  061%=      5-min Rain = 0
KAHS 041756Z 02008KT 17/09 A3012 RMK A01 T01650093  RH  063%=      5-min Rain = 0
KAHS 041757Z 02010KT 17/09 A3012 RMK A01 T01660093  RH  062%=      5-min Rain = 0
KAHS 041758Z 02009KT 16/09 A3012 RMK A01 T01640087  RH  060%=      5-min Rain = 0
KAHS 041759Z 01008KT 16/09 A3012 RMK A01 T01630089  RH  061%=      5-min Rain = 0
KAHS 041800Z 00007KT 16/09 A3012 RMK A01 T01640091  RH  062%=      5-min Rain = 0
KAHS 041801Z 01006KT 17/09 A3012 RMK A01 T01650091  RH  062%=      5-min Rain = 0
KAHS 041802Z 03008KT 17/09 A3012 RMK A01 T01660094  RH  062%=      5-min Rain = 0
KAHS 041803Z 03009KT 17/09 A3012 RMK A01 T01650088  RH  060%=      5-min Rain = 0
KAHS 041804Z 02009KT 16/09 A3012 RMK A01 T01640091  RH  062%=      5-min Rain = 0
KAHS 041805Z 03006KT 17/09 A3012 RMK A01 T01650092  RH  062%=      5-min Rain = 0
KAHS 041806Z 02007KT 17/09 A3012 RMK A01 T01650090  RH  061%=      5-min Rain = 0
KAHS 041807Z 02006KT 17/09 A3012 RMK A01 T01660092  RH  062%=      5-min Rain = 0
KAHS 041808Z 01005KT 17/09 A3012 RMK A01 T01660093  RH  062%=      5-min Rain = 0
KAHS 041809Z 02007KT 17/09 A3012 RMK A01 T01650090  RH  061%=      5-min Rain = 0
KAHS 041810Z 35009KT 17/09 A3012 RMK A01 T01650091  RH  062%=      5-min Rain = 0
KAHS 041811Z 01010KT 17/09 A3012 RMK A01 T01660091  RH  062%=      5-min Rain = 0
KAHS 041812Z 36007KT 17/09 A3012 RMK A01 T01650090  RH  061%=      5-min Rain = 0
KAHS 041813Z 01010KT 17/09 A3012 RMK A01 T01660089  RH  061%=      5-min Rain = 0
KAHS 041814Z 01008KT 16/09 A3012 RMK A01 T01640085  RH  060%=      5-min Rain = 0
KAHS 041815Z 35010KT 16/09 A3012 RMK A01 T01630086  RH  060%=      5-min Rain = 0
KAHS 041816Z 35009KT 16/09 A3012 RMK A01 T01640089  RH  061%=      5-min Rain = 0
KAHS 041817Z 01008KT 16/09 A3012 RMK A01 T01630088  RH  061%=      5-min Rain = 0
KAHS 041818Z 00009KT 16/09 A3012 RMK A01 T01640091  RH  062%=      5-min Rain = 0
KAHS 041819Z 35007KT 17/09 A3012 RMK A01 T01650091  RH  062%=      5-min Rain = 0
KAHS 041820Z 34009KT 17/09 A3012 RMK A01 T01650087  RH  060%=      5-min Rain = 0
KAHS 041821Z 34009KT 16/09 A3012 RMK A01 T01640088  RH  060%=      5-min Rain = 0
KAHS 041822Z 34008KT 16/09 A3012 RMK A01 T01640088  RH  061%=      5-min Rain = 0
KAHS 041823Z 34008KT 16/09 A3012 RMK A01 T01640089  RH  061%=      5-min Rain = 0
KAHS 041824Z 34007KT 16/09 A3012 RMK A01 T01640088  RH  061%=      5-min Rain = 0
KAHS 041825Z 34008KT 16/09 A3012 RMK A01 T01640088  RH  061%=      5-min Rain = 0
KAHS 041826Z 34009KT 16/09 A3012 RMK A01 T01640087  RH  061%=      5-min Rain = 0
KAHS 041827Z 34009KT 17/09 A3012 RMK A01 T01650091  RH  062%=      5-min Rain = 0
KAHS 041828Z 33009KT 17/09 A3012 RMK A01 T01650090  RH  061%=      5-min Rain = 0
KAHS 041829Z 33008KT 17/09 A3012 RMK A01 T01660091  RH  061%=      5-min Rain = 0
KAHS 041830Z 35008KT 17/09 A3011 RMK A01 T01660090  RH  061%=      5-min Rain = 0
KAHS 041831Z 00008KT 17/09 A3011 RMK A01 T01660088  RH  060%=      5-min Rain = 0
KAHS 041832Z 01010KT 17/09 A3011 RMK A01 T01660090  RH  061%=      5-min Rain = 0
KAHS 041833Z 00010KT 17/09 A3011 RMK A01 T01660089  RH  060%=      5-min Rain = 0
KAHS 041834Z 00009KT 17/09 A3011 RMK A01 T01650087  RH  060%=      5-min Rain = 0
KAHS 041835Z 36008KT 17/09 A3011 RMK A01 T01650087  RH  060%=      5-min Rain = 0
KAHS 041836Z 36009KT 17/09 A3011 RMK A01 T01650088  RH  060%=      5-min Rain = 0
KAHS 041837Z 35008KT 17/09 A3011 RMK A01 T01660088  RH  060%=      5-min Rain = 0
KAHS 041838Z 34006KT 17/09 A3011 RMK A01 T01660087  RH  060%=      5-min Rain = 0
KAHS 041839Z 34005KT 17/09 A3011 RMK A01 T01660087  RH  060%=      5-min Rain = 0
KAHS 041840Z 36007KT 17/09 A3011 RMK A01 T01660087  RH  060%=      5-min Rain = 0
KAHS 041841Z 35008KT 17/09 A3011 RMK A01 T01670089  RH  060%=      5-min Rain = 0
KAHS 041842Z 36010KT 17/09 A3011 RMK A01 T01690089  RH  059%=      5-min Rain = 0
KAHS 041843Z 36011KT 17/09 A3011 RMK A01 T01700088  RH  059%=      5-min Rain = 0
KAHS 041844Z 36010KT 17/09 A3011 RMK A01 T01690087  RH  058%=      5-min Rain = 0
KAHS 041845Z 36008KT 17/09 A3011 RMK A01 T01700090  RH  059%=      5-min Rain = 0
KAHS 041846Z 36010KT 17/09 A3011 RMK A01 T01690087  RH  058%=      5-min Rain = 0
KAHS 041847Z 35009KT 17/09 A3011 RMK A01 T01700090  RH  059%=      5-min Rain = 0
KAHS 041848Z 35008KT 17/09 A301 RMK A01 T01690087  RH  058%=      5-min Rain = 0
KAHS 041849Z 35010KT 17/09 A301 RMK A01 T01690088  RH  059%=      5-min Rain = 0
KAHS 041850Z 00011KT 17/09 A301 RMK A01 T01690088  RH  059%=      5-min Rain = 0
KAHS 041851Z 35011KT 17/09 A301 RMK A01 T01690088  RH  059%=      5-min Rain = 0
KAHS 041852Z 35007KT 17/09 A301 RMK A01 T01710094  RH  060%=      5-min Rain = 0
KAHS 041853Z 01009KT 17/10 A301 RMK A01 T01740096  RH  060%=      5-min Rain = 0
KAHS 041854Z 01009KT 17/09 A301 RMK A01 T01720087  RH  057%=      5-min Rain = 0
KAHS 041855Z 02008KT 17/09 A301 RMK A01 T01710089  RH  058%=      5-min Rain = 0
KAHS 041856Z 02010KT 17/09 A301 RMK A01 T01710089  RH  059%=      5-min Rain = 0
KAHS 041857Z 01012KT 17/09 A301 RMK A01 T01710089  RH  059%=      5-min Rain = 0
KAHS 041858Z 00008KT 17/09 A301 RMK A01 T01710089  RH  058%=      5-min Rain = 0
KAHS 041859Z 00007KT 17/09 A301 RMK A01 T01720094  RH  060%=      5-min Rain = 0
KAHS 041900Z 35007KT 17/09 A301 RMK A01 T01730091  RH  058%=      5-min Rain = 0
KAHS 041901Z 01005KT 17/09 A301 RMK A01 T01730089  RH  058%=      5-min Rain = 0
KAHS 041902Z 00007KT 17/09 A301 RMK A01 T01730092  RH  059%=      5-min Rain = 0
KAHS 041903Z 35007KT 17/09 A301 RMK A01 T01740093  RH  059%=      5-min Rain = 0
KAHS 041904Z 01007KT 18/09 A301 RMK A01 T01750092  RH  058%=      5-min Rain = 0
KAHS 041905Z 00005KT 18/10 A301 RMK A01 T01790098  RH  059%=      5-min Rain = 0
KAHS 041906Z 36008KT 18/09 A301 RMK A01 T01780092  RH  057%=      5-min Rain = 0
KAHS 041907Z 36006KT 18/09 A301 RMK A01 T01760088  RH  056%=      5-min Rain = 0
KAHS 041908Z 35005KT 18/09 A301 RMK A01 T01750090  RH  057%=      5-min Rain = 0
KAHS 041909Z 01006KT 18/09 A301 RMK A01 T01750091  RH  058%=      5-min Rain = 0
KAHS 041910Z 01007KT 17/09 A301 RMK A01 T01730087  RH  057%=      5-min Rain = 0
KAHS 041911Z 01008KT 17/09 A301 RMK A01 T01730089  RH  058%=      5-min Rain = 0
KAHS 041912Z 34007KT 17/09 A301 RMK A01 T01740093  RH  059%=      5-min Rain = 0
KAHS 041913Z 34008KT 18/09 A301 RMK A01 T01770092  RH  058%=      5-min Rain = 0
KAHS 041914Z 34008KT 18/09 A301 RMK A01 T01800092  RH  057%=      5-min Rain = 0
KAHS 041915Z 00009KT 18/10 A301 RMK A01 T01820095  RH  057%=      5-min Rain = 0
KAHS 041916Z 02008KT 19/10 A301 RMK A01 T01850098  RH  057%=      5-min Rain = 0
KAHS 041917Z 01007KT 18/09 A301 RMK A01 T01840094  RH  056%=      5-min Rain = 0
KAHS 041918Z 35008KT 18/09 A301 RMK A01 T01820093  RH  056%=      5-min Rain = 0
KAHS 041919Z 00005KT 18/10 A301 RMK A01 T01830095  RH  056%=      5-min Rain = 0
KAHS 041920Z 01005KT 18/09 A301 RMK A01 T01840092  RH  055%=      5-min Rain = 0
KAHS 041921Z 02009KT 18/09 A301 RMK A01 T01830093  RH  056%=      5-min Rain = 0
KAHS 041922Z 02008KT 18/09 A301 RMK A01 T01800086  RH  054%=      5-min Rain = 0
KAHS 041923Z 01007KT 18/09 A301 RMK A01 T01780090  RH  056%=      5-min Rain = 0
KAHS 041924Z 01009KT 18/10 A301 RMK A01 T01800096  RH  058%=      5-min Rain = 0
KAHS 041925Z 36012KT 18/09 A301 RMK A01 T01820091  RH  055%=      5-min Rain = 0
KAHS 041926Z 35011KT 18/09 A301 RMK A01 T01800088  RH  055%=      5-min Rain = 0
KAHS 041927Z 01010KT 18/09 A3009 RMK A01 T01790087  RH  055%=      5-min Rain = 0
KAHS 041928Z 34007KT 18/09 A3009 RMK A01 T01780087  RH  055%=      5-min Rain = 0
KAHS 041929Z 34009KT 18/09 A301 RMK A01 T01800094  RH  057%=      5-min Rain = 0
KAHS 041930Z 33010KT 18/09 A301 RMK A01 T01820094  RH  056%=      5-min Rain = 0
KAHS 041931Z 34010KT 18/10 A301 RMK A01 T01840095  RH  056%=      5-min Rain = 0
KAHS 041932Z 35010KT 19/10 A3009 RMK A01 T01870095  RH  055%=      5-min Rain = 0
KAHS 041933Z 35008KT 19/09 A3009 RMK A01 T01860087  RH  053%=      5-min Rain = 0
KAHS 041934Z 34010KT 18/09 A3009 RMK A01 T01830087  RH  053%=      5-min Rain = 0
KAHS 041935Z 34006KT 18/08 A3009 RMK A01 T01800082  RH  053%=      5-min Rain = 0
KAHS 041936Z 00008KT 18/09 A3009 RMK A01 T01810091  RH  056%=      5-min Rain = 0
KAHS 041937Z 35007KT 18/09 A3009 RMK A01 T01810087  RH  054%=      5-min Rain = 0
KAHS 041938Z 35007KT 18/09 A3009 RMK A01 T01810089  RH  055%=      5-min Rain = 0
KAHS 041939Z 01006KT 18/09 A3009 RMK A01 T01810087  RH  054%=      5-min Rain = 0
KAHS 041940Z 02006KT 18/09 A3009 RMK A01 T01820091  RH  055%=      5-min Rain = 0
KAHS 041941Z 03011KT 18/09 A3009 RMK A01 T01820090  RH  055%=      5-min Rain = 0
KAHS 041942Z 01011KT 18/09 A3009 RMK A01 T01810088  RH  055%=      5-min Rain = 0
KAHS 041943Z 02008KT 18/09 A3009 RMK A01 T01790090  RH  056%=      5-min Rain = 0
KAHS 041944Z 35006KT 18/09 A3009 RMK A01 T01790089  RH  055%=      5-min Rain = 0
KAHS 041945Z 35011KT 18/09 A3009 RMK A01 T01810088  RH  055%=      5-min Rain = 0
KAHS 041946Z 35007KT 18/08 A3009 RMK A01 T01800084  RH  053%=      5-min Rain = 0
KAHS 041947Z 33007KT 18/09 A3009 RMK A01 T01830089  RH  054%=      5-min Rain = 0
KAHS 041948Z 34008KT 18/08 A3009 RMK A01 T01820083  RH  053%=      5-min Rain = 0
KAHS 041949Z 34006KT 18/09 A3009 RMK A01 T01820089  RH  055%=      5-min Rain = 0
KAHS 041950Z 35010KT 18/09 A3009 RMK A01 T01840090  RH  054%=      5-min Rain = 0
KAHS 041951Z 35010KT 18/08 A3009 RMK A01 T01810084  RH  053%=      5-min Rain = 0
KAHS 041952Z 34010KT 18/09 A3009 RMK A01 T01800088  RH  055%=      5-min Rain = 0
KAHS 041953Z 36008KT 18/09 A3009 RMK A01 T01810090  RH  055%=      5-min Rain = 0
KAHS 041954Z 34009KT 18/09 A3009 RMK A01 T01840093  RH  056%=      5-min Rain = 0
KAHS 041955Z 35007G12KT 18/09 A3009 RMK A01 T01840087  RH  053%=      5-min Rain = 0
KAHS 041956Z 36010KT 19/09 A3009 RMK A01 T01850090  RH  054%=      5-min Rain = 0
KAHS 041957Z 33009KT 19/10 A3009 RMK A01 T01880096  RH  055%=      5-min Rain = 0
KAHS 041958Z 35010KT 19/09 A3009 RMK A01 T01890091  RH  053%=      5-min Rain = 0
KAHS 041959Z 00010KT 19/09 A3009 RMK A01 T01880088  RH  052%=      5-min Rain = 0
KAHS 042000Z 35009KT 19/09 A3009 RMK A01 T01880092  RH  054%=      5-min Rain = 0
KAHS 042001Z 01009KT 19/09 A3009 RMK A01 T01890088  RH  052%=      5-min Rain = 0
KAHS 042002Z 34010KT 19/09 A3009 RMK A01 T01880088  RH  052%=      5-min Rain = 0
KAHS 042003Z 34011KT 19/09 A3009 RMK A01 T01870085  RH  052%=      5-min Rain = 0
KAHS 042004Z 34010KT 19/09 A3009 RMK A01 T01870090  RH  053%=      5-min Rain = 0
KAHS 042005Z 33008KT 19/09 A3009 RMK A01 T01890090  RH  053%=      5-min Rain = 0
KAHS 042006Z 33009G14KT 19/09 A3009 RMK A01 T01890090  RH  053%=      5-min Rain = 0
KAHS 042007Z 33011KT 19/09 A3009 RMK A01 T01900092  RH  053%=      5-min Rain = 0
KAHS 042008Z 01011KT 19/10 A3009 RMK A01 T01920095  RH  053%=      5-min Rain = 0
KAHS 042009Z 01013KT 19/09 A3009 RMK A01 T01910091  RH  052%=      5-min Rain = 0
KAHS 042010Z 01012KT 19/09 A3009 RMK A01 T01910091  RH  052%=      5-min Rain = 0
KAHS 042011Z 01011KT 19/09 A3009 RMK A01 T01900088  RH  052%=      5-min Rain = 0
KAHS 042012Z 01009KT 19/09 A3009 RMK A01 T01890086  RH  051%=      5-min Rain = 0
KAHS 042013Z 35008KT 19/08 A3008 RMK A01 T01880084  RH  051%=      5-min Rain = 0
KAHS 042014Z 01009KT 19/09 A3008 RMK A01 T01880086  RH  052%=      5-min Rain = 0
KAHS 042015Z 35006KT 19/09 A3008 RMK A01 T01890089  RH  052%=      5-min Rain = 0
KAHS 042016Z 33006KT 19/09 A3008 RMK A01 T01910094  RH  053%=      5-min Rain = 0
KAHS 042017Z 32008KT 19/09 A3008 RMK A01 T01930092  RH  052%=      5-min Rain = 0
KAHS 042018Z 34008KT 19/08 A3008 RMK A01 T01900084  RH  050%=      5-min Rain = 0
KAHS 042019Z 34012KT 19/09 A3008 RMK A01 T01910091  RH  052%=      5-min Rain = 0
KAHS 042020Z 35009KT 19/09 A3008 RMK A01 T01920093  RH  053%=      5-min Rain = 0
KAHS 042021Z 35010KT 19/09 A3008 RMK A01 T01930094  RH  053%=      5-min Rain = 0
KAHS 042022Z 36011KT 19/09 A3008 RMK A01 T01930092  RH  052%=      5-min Rain = 0
KAHS 042023Z 36011KT 19/09 A3008 RMK A01 T01910086  RH  050%=      5-min Rain = 0
KAHS 042024Z 35011KT 19/09 A3008 RMK A01 T01900087  RH  051%=      5-min Rain = 0
KAHS 042025Z 36013KT 19/09 A3008 RMK A01 T01900086  RH  051%=      5-min Rain = 0
KAHS 042026Z 36010KT 19/09 A3008 RMK A01 T01890085  RH  051%=      5-min Rain = 0
KAHS 042027Z 01010KT 19/09 A3008 RMK A01 T01900088  RH  052%=      5-min Rain = 0
KAHS 042028Z 01011G16KT 19/09 A3008 RMK A01 T01900088  RH  051%=      5-min Rain = 0
KAHS 042029Z 36010KT 19/09 A3008 RMK A01 T01900089  RH  052%=      5-min Rain = 0
KAHS 042030Z 35010KT 19/09 A3008 RMK A01 T01890086  RH  051%=      5-min Rain = 0
KAHS 042031Z 00008KT 19/08 A3008 RMK A01 T01880083  RH  050%=      5-min Rain = 0
KAHS 042032Z 35010KT 19/08 A3008 RMK A01 T01880084  RH  051%=      5-min Rain = 0
KAHS 042033Z 34007KT 19/09 A3008 RMK A01 T01890085  RH  051%=      5-min Rain = 0
KAHS 042034Z 33012KT 19/09 A3008 RMK A01 T01910088  RH  052%=      5-min Rain = 0
KAHS 042035Z 35010KT 19/09 A3008 RMK A01 T01910090  RH  052%=      5-min Rain = 0
KAHS 042036Z 35009KT 19/09 A3008 RMK A01 T01920090  RH  052%=      5-min Rain = 0
KAHS 042037Z 00009KT 19/10 A3008 RMK A01 T01930095  RH  053%=      5-min Rain = 0
KAHS 042038Z 01010KT 20/09 A3008 RMK A01 T01950092  RH  052%=      5-min Rain = 0
KAHS 042039Z 00007KT 19/09 A3008 RMK A01 T01940090  RH  051%=      5-min Rain = 0
KAHS 042040Z 36006KT 19/09 A3008 RMK A01 T01940090  RH  051%=      5-min Rain = 0
KAHS 042041Z 00010KT 19/09 A3008 RMK A01 T01940089  RH  051%=      5-min Rain = 0
KAHS 042042Z 01008KT 19/09 A3008 RMK A01 T01930088  RH  050%=      5-min Rain = 0
KAHS 042043Z 35008KT 19/09 A3008 RMK A01 T01940087  RH  050%=      5-min Rain = 0
KAHS 042044Z 34008G13KT 19/09 A3008 RMK A01 T01930086  RH  050%=      5-min Rain = 0
KAHS 042045Z 34010KT 19/08 A3007 RMK A01 T01920084  RH  050%=      5-min Rain = 0
KAHS 042046Z 02009KT 19/09 A3008 RMK A01 T01940091  RH  051%=      5-min Rain = 0
KAHS 042047Z 01010KT 19/09 A3007 RMK A01 T01940089  RH  050%=      5-min Rain = 0
KAHS 042048Z 02010KT 19/09 A3008 RMK A01 T01940085  RH  049%=      5-min Rain = 0
KAHS 042049Z 01008KT 19/09 A3008 RMK A01 T01930086  RH  050%=      5-min Rain = 0
KAHS 042050Z 02005KT 19/08 A3007 RMK A01 T01920082  RH  049%=      5-min Rain = 0
KAHS 042051Z 36007KT 19/09 A3007 RMK A01 T01930087  RH  050%=      5-min Rain = 0
KAHS 042052Z 36010KT 19/09 A3007 RMK A01 T01940090  RH  051%=      5-min Rain = 0
KAHS 042053Z 36009KT 20/09 A3007 RMK A01 T01960090  RH  051%=      5-min Rain = 0
KAHS 042054Z 35007KT 20/09 A3007 RMK A01 T01950086  RH  049%=      5-min Rain = 0
KAHS 042055Z 36007KT 19/08 A3007 RMK A01 T01940083  RH  049%=      5-min Rain = 0
KAHS 042056Z 01009KT 19/08 A3007 RMK A01 T01920083  RH  049%=      5-min Rain = 0
KAHS 042057Z 01008KT 19/09 A3007 RMK A01 T01930087  RH  050%=      5-min Rain = 0
KAHS 042058Z 02008KT 20/10 A3007 RMK A01 T01960095  RH  052%=      5-min Rain = 0
KAHS 042059Z 01010KT 20/09 A3007 RMK A01 T01960089  RH  050%=      5-min Rain = 0
KAHS 042100Z 02009KT 19/09 A3007 RMK A01 T01940085  RH  049%=      5-min Rain = 0
KAHS 042101Z 01008KT 19/08 A3007 RMK A01 T01930084  RH  049%=      5-min Rain = 0
KAHS 042102Z 03005KT 19/09 A3007 RMK A01 T01920085  RH  050%=      5-min Rain = 0
KAHS 042103Z 02007KT 19/09 A3007 RMK A01 T01940089  RH  051%=      5-min Rain = 0
KAHS 042104Z 01007KT 20/09 A3007 RMK A01 T01960091  RH  051%=      5-min Rain = 0
KAHS 042105Z 01008KT 20/10 A3007 RMK A01 T02000098  RH  052%=      5-min Rain = 0
KAHS 042106Z 35011KT 20/09 A3007 RMK A01 T02000089  RH  049%=      5-min Rain = 0
KAHS 042107Z 00012KT 20/08 A3007 RMK A01 T01970083  RH  048%=      5-min Rain = 0
KAHS 042108Z 01008KT 20/09 A3007 RMK A01 T01960085  RH  049%=      5-min Rain = 0
KAHS 042109Z 01006KT 20/08 A3007 RMK A01 T01950083  RH  048%=      5-min Rain = 0
KAHS 042110Z 35007G12KT 20/09 A3007 RMK A01 T01950086  RH  049%=      5-min Rain = 0
KAHS 042111Z 34011KT 20/09 A3007 RMK A01 T01970088  RH  049%=      5-min Rain = 0
KAHS 042112Z 33011KT 20/09 A3007 RMK A01 T01970087  RH  049%=      5-min Rain = 0
KAHS 042113Z 33013KT 20/09 A3007 RMK A01 T01970085  RH  048%=      5-min Rain = 0
KAHS 042114Z 34013KT 20/09 A3007 RMK A01 T01970085  RH  049%=      5-min Rain = 0
KAHS 042115Z 35010KT 20/08 A3007 RMK A01 T01950082  RH  048%=      5-min Rain = 0
KAHS 042116Z 34010KT 20/09 A3007 RMK A01 T01970087  RH  049%=      5-min Rain = 0
KAHS 042117Z 00007KT 20/09 A3007 RMK A01 T01970086  RH  049%=      5-min Rain = 0
KAHS 042118Z 35007KT 20/09 A3007 RMK A01 T01980085  RH  048%=      5-min Rain = 0
KAHS 042119Z 34009KT 20/08 A3007 RMK A01 T01980084  RH  048%=      5-min Rain = 0
KAHS 042120Z 34009KT 20/09 A3007 RMK A01 T01990090  RH  049%=      5-min Rain = 0
KAHS 042121Z 34008KT 20/09 A3007 RMK A01 T02010089  RH  049%=      5-min Rain = 0
KAHS 042122Z 34011KT 20/08 A3007 RMK A01 T01990082  RH  047%=      5-min Rain = 0
KAHS 042123Z 35008KT 20/08 A3007 RMK A01 T01960078  RH  046%=      5-min Rain = 0
KAHS 042124Z 34006KT 20/08 A3007 RMK A01 T01960083  RH  048%=      5-min Rain = 0
KAHS 042125Z 34007KT 20/09 A3007 RMK A01 T01990088  RH  049%=      5-min Rain = 0
KAHS 042126Z 35009KT 20/09 A3006 RMK A01 T02020094  RH  050%=      5-min Rain = 0
KAHS 042127Z 35008KT 20/08 A3006 RMK A01 T02010081  RH  046%=      5-min Rain = 0
KAHS 042128Z 01008KT 20/08 A3006 RMK A01 T01990083  RH  047%=      5-min Rain = 0
KAHS 042129Z 36007KT 20/08 A3006 RMK A01 T01980080  RH  046%=      5-min Rain = 0
KAHS 042130Z 35008KT 20/08 A3006 RMK A01 T01980083  RH  047%=      5-min Rain = 0
KAHS 042131Z 33007KT 20/09 A3006 RMK A01 T02000089  RH  049%=      5-min Rain = 0
KAHS 042132Z 35008KT 20/09 A3006 RMK A01 T02030092  RH  049%=      5-min Rain = 0
KAHS 042133Z 34007KT 20/09 A3006 RMK A01 T02020086  RH  047%=      5-min Rain = 0
KAHS 042134Z 35009KT 20/09 A3006 RMK A01 T02030087  RH  047%=      5-min Rain = 0
KAHS 042135Z 33006KT 20/09 A3006 RMK A01 T02020087  RH  047%=      5-min Rain = 0
KAHS 042136Z 33009KT 20/09 A3006 RMK A01 T02030088  RH  047%=      5-min Rain = 0
KAHS 042137Z 33009KT 20/08 A3006 RMK A01 T02010084  RH  047%=      5-min Rain = 0
KAHS 042138Z 33011KT 20/08 A3006 RMK A01 T02010084  RH  047%=      5-min Rain = 0
KAHS 042139Z 35009KT 20/08 A3006 RMK A01 T02000083  RH  047%=      5-min Rain = 0
KAHS 042140Z 35005KT 20/09 A3006 RMK A01 T02010088  RH  048%=      5-min Rain = 0
KAHS 042141Z 32007KT 20/09 A3006 RMK A01 T02030090  RH  048%=      5-min Rain = 0
KAHS 042142Z 31005KT 20/09 A3006 RMK A01 T02020085  RH  047%=      5-min Rain = 0
KAHS 042143Z 33005KT 20/09 A3006 RMK A01 T02020086  RH  047%=      5-min Rain = 0
KAHS 042144Z 35005KT 20/09 A3006 RMK A01 T02020086  RH  047%=      5-min Rain = 0
KAHS 042145Z 36004KT 20/09 A3006 RMK A01 T02020086  RH  047%=      5-min Rain = 0
KAHS 042146Z 01003KT 20/08 A3005 RMK A01 T02010079  RH  045%=      5-min Rain = 0
KAHS 042147Z 33004KT 20/08 A3005 RMK A01 T02000079  RH  046%=      5-min Rain = 0
KAHS 042148Z 32004KT 20/08 A3005 RMK A01 T02000083  RH  047%=      5-min Rain = 0
KAHS 042149Z 36005KT 20/09 A3005 RMK A01 T02010087  RH  048%=      5-min Rain = 0
KAHS 042150Z 28006KT 20/09 A3005 RMK A01 T02030088  RH  047%=      5-min Rain = 0
KAHS 042151Z 31003KT 20/09 A3005 RMK A01 T02030086  RH  047%=      5-min Rain = 0
KAHS 042152Z 32003KT 20/09 A3005 RMK A01 T02040089  RH  048%=      5-min Rain = 0
KAHS 042153Z 31002KT 20/08 A3005 RMK A01 T02040080  RH  045%=      5-min Rain = 0
KAHS 042154Z 30003KT 20/08 A3005 RMK A01 T02020075  RH  044%=      5-min Rain = 0
KAHS 042155Z 34002KT 20/08 A3005 RMK A01 T02020081  RH  046%=      5-min Rain = 0
KAHS 042156Z 01003KT 20/08 A3005 RMK A01 T02030083  RH  046%=      5-min Rain = 0
KAHS 042157Z 34002KT 20/08 A3005 RMK A01 T02040080  RH  045%=      5-min Rain = 0
KAHS 042158Z 36006KT 20/08 A3005 RMK A01 T02040082  RH  045%=      5-min Rain = 0
KAHS 042159Z 02006KT 20/08 A3005 RMK A01 T02030077  RH  044%=      5-min Rain = 0
KAHS 042200Z 02005KT 20/07 A3005 RMK A01 T02010073  RH  044%=      5-min Rain = 0
KAHS 042201Z 04007KT 20/08 A3005 RMK A01 T02020083  RH  046%=      5-min Rain = 0
KAHS 042202Z 04006KT 20/09 A3005 RMK A01 T02040085  RH  046%=      5-min Rain = 0
KAHS 042203Z 03005G10KT 21/08 A3005 RMK A01 T02050077  RH  044%=      5-min Rain = 0
KAHS 042204Z 02006KT 21/08 A3005 RMK A01 T02060084  RH  046%=      5-min Rain = 0
KAHS 042205Z 03009KT 21/09 A3005 RMK A01 T02080086  RH  046%=      5-min Rain = 0
KAHS 042206Z 02007KT 21/08 A3005 RMK A01 T02070082  RH  045%=      5-min Rain = 0
KAHS 042207Z 02007KT 21/08 A3005 RMK A01 T02060079  RH  044%=      5-min Rain = 0
KAHS 042208Z 04008KT 21/08 A3005 RMK A01 T02060084  RH  045%=      5-min Rain = 0
KAHS 042209Z 03006KT 21/08 A3005 RMK A01 T02050075  RH  043%=      5-min Rain = 0
KAHS 042210Z 07003KT 20/08 A3005 RMK A01 T02030075  RH  043%=      5-min Rain = 0
KAHS 042211Z 04003KT 20/08 A3005 RMK A01 T02040079  RH  044%=      5-min Rain = 0
KAHS 042212Z 03004KT 21/08 A3005 RMK A01 T02050081  RH  045%=      5-min Rain = 0
KAHS 042213Z 35002KT 21/08 A3005 RMK A01 T02060078  RH  044%=      5-min Rain = 0
KAHS 042214Z 09003KT 21/08 A3005 RMK A01 T02070081  RH  044%=      5-min Rain = 0
KAHS 042215Z 07003KT 21/08 A3004 RMK A01 T02080083  RH  045%=      5-min Rain = 0
KAHS 042216Z 01008KT 21/09 A3004 RMK A01 T02090087  RH  045%=      5-min Rain = 0
KAHS 042217Z 01006KT 21/08 A3004 RMK A01 T02080081  RH  044%=      5-min Rain = 0
KAHS 042218Z 01005KT 21/08 A3004 RMK A01 T02060077  RH  043%=      5-min Rain = 0
KAHS 042219Z 04004KT 21/08 A3004 RMK A01 T02060078  RH  044%=      5-min Rain = 0
KAHS 042220Z 05003KT 21/08 A3004 RMK A01 T02060076  RH  043%=      5-min Rain = 0
KAHS 042221Z 29003KT 21/08 A3004 RMK A01 T02060081  RH  044%=      5-min Rain = 0
KAHS 042222Z 34005KT 21/08 A3004 RMK A01 T02070081  RH  044%=      5-min Rain = 0
KAHS 042223Z 35005KT 21/08 A3004 RMK A01 T02070080  RH  044%=      5-min Rain = 0
KAHS 042224Z 02006KT 21/08 A3004 RMK A01 T02080084  RH  045%=      5-min Rain = 0
KAHS 042225Z 02007KT 21/08 A3004 RMK A01 T02090081  RH  044%=      5-min Rain = 0
KAHS 042226Z 01006KT 21/08 A3004 RMK A01 T02080083  RH  044%=      5-min Rain = 0
KAHS 042227Z 03007KT 21/08 A3004 RMK A01 T02080080  RH  044%=      5-min Rain = 0
KAHS 042228Z 04009KT 21/08 A3004 RMK A01 T02080083  RH  045%=      5-min Rain = 0
KAHS 042229Z 05008KT 21/08 A3004 RMK A01 T02080078  RH  043%=      5-min Rain = 0
KAHS 042230Z 04006KT 21/08 A3004 RMK A01 T02060075  RH  043%=      5-min Rain = 0
KAHS 042231Z 02004KT 21/08 A3004 RMK A01 T02060081  RH  045%=      5-min Rain = 0
KAHS 042232Z 03005KT 21/08 A3004 RMK A01 T02080084  RH  045%=      5-min Rain = 0
KAHS 042233Z 03004KT 21/08 A3004 RMK A01 T02090084  RH  044%=      5-min Rain = 0
KAHS 042234Z 04005KT 21/09 A3004 RMK A01 T02100085  RH  045%=      5-min Rain = 0
KAHS 042235Z 01005KT 21/08 A3004 RMK A01 T02090079  RH  043%=      5-min Rain = 0
KAHS 042236Z 07005KT 21/08 A3004 RMK A01 T02090079  RH  043%=      5-min Rain = 0
KAHS 042237Z 07004KT 21/08 A3004 RMK A01 T02080077  RH  043%=      5-min Rain = 0
KAHS 042238Z 07003KT 21/07 A3004 RMK A01 T02070074  RH  042%=      5-min Rain = 0
KAHS 042239Z 09005KT 21/08 A3004 RMK A01 T02080080  RH  044%=      5-min Rain = 0
KAHS 042240Z 10004KT 21/08 A3004 RMK A01 T02080076  RH  043%=      5-min Rain = 0
KAHS 042241Z 10004KT 21/08 A3004 RMK A01 T02070076  RH  043%=      5-min Rain = 0
KAHS 042242Z 09002KT 21/07 A3004 RMK A01 T02060074  RH  042%=      5-min Rain = 0
KAHS 042243Z 04000KT 21/07 A3004 RMK A01 T02060072  RH  042%=      5-min Rain = 0
KAHS 042244Z 01001KT 21/08 A3004 RMK A01 T02080076  RH  043%=      5-min Rain = 0
KAHS 042245Z 01000KT 21/08 A3004 RMK A01 T02110081  RH  043%=      5-min Rain = 0
KAHS 042246Z 33003KT 21/08 A3004 RMK A01 T02120078  RH  042%=      5-min Rain = 0
KAHS 042247Z 30002KT 21/08 A3004 RMK A01 T02120076  RH  042%=      5-min Rain = 0
KAHS 042248Z 09002KT 21/08 A3004 RMK A01 T02130078  RH  042%=      5-min Rain = 0
KAHS 042249Z 08008G15KT 21/08 A3004 RMK A01 T02130077  RH  042%=      5-min Rain = 0
KAHS 042250Z 00007G16KT 21/09 A3004 RMK A01 T02130086  RH  044%=      5-min Rain = 0
KAHS 042251Z 03004KT 21/08 A3004 RMK A01 T02120079  RH  042%=      5-min Rain = 0
KAHS 042252Z 02005KT 21/09 A3004 RMK A01 T02130085  RH  044%=      5-min Rain = 0
KAHS 042253Z 02007KT 21/08 A3004 RMK A01 T02130082  RH  043%=      5-min Rain = 0
KAHS 042254Z 06005KT 21/08 A3004 RMK A01 T02120081  RH  043%=      5-min Rain = 0
KAHS 042255Z 04008KT 21/08 A3004 RMK A01 T02130083  RH  043%=      5-min Rain = 0
KAHS 042256Z 04005KT 21/08 A3005 RMK A01 T02120082  RH  043%=      5-min Rain = 0
KAHS 042257Z 04004KT 21/08 A3005 RMK A01 T02130083  RH  043%=      5-min Rain = 0
KAHS 042258Z 04004KT 21/08 A3005 RMK A01 T02130081  RH  043%=      5-min Rain = 0
KAHS 042259Z 03006KT 21/08 A3005 RMK A01 T02130084  RH  043%=      5-min Rain = 0
KAHS 042300Z 02006KT 21/09 A3005 RMK A01 T02140087  RH  044%=      5-min Rain = 0
KAHS 042301Z 02005KT 21/08 A3005 RMK A01 T02140079  RH  042%=      5-min Rain = 0
KAHS 042302Z 04002KT 21/08 A3005 RMK A01 T02130076  RH  041%=      5-min Rain = 0
KAHS 042303Z 04002KT 21/08 A3005 RMK A01 T02140081  RH  042%=      5-min Rain = 0
KAHS 042304Z 01004KT 22/08 A3005 RMK A01 T02150080  RH  042%=      5-min Rain = 0
KAHS 042305Z 01002KT 21/07 A3005 RMK A01 T02130074  RH  040%=      5-min Rain = 0
KAHS 042306Z 36002KT 21/07 A3005 RMK A01 T02120073  RH  041%=      5-min Rain = 0
KAHS 042307Z 01003KT 21/08 A3005 RMK A01 T02130076  RH  041%=      5-min Rain = 0
KAHS 042308Z 00004KT 21/08 A3005 RMK A01 T02130078  RH  042%=      5-min Rain = 0
KAHS 042309Z 04004KT 21/08 A3005 RMK A01 T02140084  RH  043%=      5-min Rain = 0
KAHS 042310Z 04005KT 21/08 A3005 RMK A01 T02140080  RH  042%=      5-min Rain = 0
KAHS 042311Z 00004KT 22/09 A3005 RMK A01 T02150086  RH  044%=      5-min Rain = 0
KAHS 042312Z 34004KT 22/08 A3005 RMK A01 T02150081  RH  042%=      5-min Rain = 0
KAHS 042313Z 36004KT 22/08 A3005 RMK A01 T02150083  RH  042%=      5-min Rain = 0
KAHS 042314Z 32004KT 22/08 A3005 RMK A01 T02150080  RH  042%=      5-min Rain = 0
KAHS 042315Z 30003KT 21/08 A3005 RMK A01 T02140079  RH  042%=      5-min Rain = 0
KAHS 042316Z 35004KT 21/08 A3005 RMK A01 T02140078  RH  042%=      5-min Rain = 0
KAHS 042317Z 01003KT 21/08 A3005 RMK A01 T02140079  RH  042%=      5-min Rain = 0
KAHS 042318Z 02002KT 21/07 A3005 RMK A01 T02130073  RH  040%=      5-min Rain = 0
KAHS 042319Z 03001KT 21/07 A3005 RMK A01 T02120070  RH  040%=      5-min Rain = 0
KAHS 042320Z 07000KT 21/07 A3005 RMK A01 T02120073  RH  041%=      5-min Rain = 0
KAHS 042321Z 00000KT 21/07 A3005 RMK A01 T02130071  RH  040%=      5-min Rain = 0
KAHS 042322Z 00000KT 21/07 A3005 RMK A01 T02140073  RH  040%=      5-min Rain = 0
KAHS 042323Z 12000KT 22/08 A3005 RMK A01 T02170075  RH  040%=      5-min Rain = 0
KAHS 042324Z 09002KT 22/08 A3005 RMK A01 T02180080  RH  041%=      5-min Rain = 0
KAHS 042325Z 09003KT 22/08 A3005 RMK A01 T02170081  RH  041%=      5-min Rain = 0
KAHS 042326Z 06002KT 22/07 A3004 RMK A01 T02150074  RH  040%=      5-min Rain = 0
KAHS 042327Z 05002KT 21/08 A3005 RMK A01 T02140078  RH  042%=      5-min Rain = 0
KAHS 042328Z 04003KT 21/08 A3004 RMK A01 T02140075  RH  041%=      5-min Rain = 0
KAHS 042329Z 07002KT 21/08 A3004 RMK A01 T02130075  RH  041%=      5-min Rain = 0
KAHS 042330Z 09004KT 21/08 A3004 RMK A01 T02130077  RH  041%=      5-min Rain = 0
KAHS 042331Z 08004KT 21/08 A3004 RMK A01 T02120080  RH  043%=      5-min Rain = 0
KAHS 042332Z 07003KT 21/07 A3004 RMK A01 T02100072  RH  041%=      5-min Rain = 0
KAHS 042333Z 04003KT 21/08 A3004 RMK A01 T02100077  RH  042%=      5-min Rain = 0
KAHS 042334Z 04001KT 21/07 A3004 RMK A01 T02100074  RH  041%=      5-min Rain = 0
KAHS 042335Z 05001KT 21/07 A3004 RMK A01 T02110072  RH  041%=      5-min Rain = 0
KAHS 042336Z 03002KT 21/07 A3004 RMK A01 T02120073  RH  041%=      5-min Rain = 0
KAHS 042337Z 01003KT 21/08 A3004 RMK A01 T02120075  RH  041%=      5-min Rain = 0
KAHS 042338Z 34005KT 21/07 A3004 RMK A01 T02120074  RH  041%=      5-min Rain = 0
KAHS 042339Z 33003KT 21/07 A3004 RMK A01 T02120074  RH  041%=      5-min Rain = 0
KAHS 042340Z 33004KT 21/08 A3004 RMK A01 T02130076  RH  041%=      5-min Rain = 0
KAHS 042341Z 33002KT 21/07 A3004 RMK A01 T02130072  RH  040%=      5-min Rain = 0
KAHS 042342Z 34003KT 21/08 A3004 RMK A01 T02140080  RH  042%=      5-min Rain = 0
KAHS 042343Z 35004KT 22/08 A3004 RMK A01 T02160082  RH  042%=      5-min Rain = 0
KAHS 042344Z 36005KT 22/08 A3004 RMK A01 T02160076  RH  040%=      5-min Rain = 0
KAHS 042345Z 01004KT 21/07 A3004 RMK A01 T02140073  RH  040%=      5-min Rain = 0
KAHS 042346Z 01004KT 21/08 A3004 RMK A01 T02140075  RH  041%=      5-min Rain = 0
KAHS 042347Z 01004KT 21/07 A3004 RMK A01 T02130071  RH  040%=      5-min Rain = 0
KAHS 042348Z 36003KT 21/07 A3004 RMK A01 T02130072  RH  040%=      5-min Rain = 0
KAHS 042349Z 35002KT 21/08 A3004 RMK A01 T02140077  RH  041%=      5-min Rain = 0
KAHS 042350Z 01002KT 21/07 A3004 RMK A01 T02140074  RH  040%=      5-min Rain = 0
KAHS 042351Z 02002KT 21/08 A3004 RMK A01 T02140075  RH  040%=      5-min Rain = 0
KAHS 042352Z 01005KT 22/08 A3004 RMK A01 T02150076  RH  041%=      5-min Rain = 0
KAHS 042353Z 36004KT 22/08 A3004 RMK A01 T02150079  RH  042%=      5-min Rain = 0
KAHS 042354Z 00005KT 21/08 A3004 RMK A01 T02140075  RH  041%=      5-min Rain = 0
KAHS 042355Z 02005KT 21/08 A3004 RMK A01 T02140081  RH  042%=      5-min Rain = 0
KAHS 042356Z 36004KT 21/08 A3004 RMK A01 T02140079  RH  042%=      5-min Rain = 0
KAHS 042357Z 32004KT 21/08 A3004 RMK A01 T02140075  RH  041%=      5-min Rain = 0
KAHS 042358Z 33003KT 21/07 A3004 RMK A01 T02130070  RH  040%=      5-min Rain = 0
KAHS 042359Z 35003KT 21/07 A3004 RMK A01 T02120070  RH  040%=      5-min Rain = 0
KAHS 050000Z 33003KT 21/08 A3004 RMK A01 T02130075  RH  041%=      5-min Rain = 0
KAHS 050001Z 35002KT 22/08 A3004 RMK A01 T02150080  RH  042%=      5-min Rain = 0
KAHS 050002Z 02002KT 22/08 A3004 RMK A01 T02150079  RH  042%=      5-min Rain = 0
KAHS 050003Z 04004KT 22/07 A3004 RMK A01 T02150074  RH  040%=      5-min Rain = 0
KAHS 050004Z 04004KT 21/08 A3004 RMK A01 T02140080  RH  042%=      5-min Rain = 0
KAHS 050005Z 06005KT 21/08 A3004 RMK A01 T02130079  RH  042%=      5-min Rain = 0
KAHS 050006Z 05005KT 21/07 A3004 RMK A01 T02110074  RH  041%=      5-min Rain = 0
KAHS 050007Z 08005KT 21/08 A3004 RMK A01 T02110077  RH  042%=      5-min Rain = 0
KAHS 050008Z 09006KT 21/08 A3004 RMK A01 T02100075  RH  042%=      5-min Rain = 0
KAHS 050009Z 09004KT 21/07 A3004 RMK A01 T02090072  RH  041%=      5-min Rain = 0
KAHS 050010Z 09004KT 21/08 A3004 RMK A01 T02090075  RH  042%=      5-min Rain = 0
KAHS 050011Z 08004KT 21/08 A3004 RMK A01 T02090075  RH  042%=      5-min Rain = 0
KAHS 050012Z 11003KT 21/07 A3004 RMK A01 T02090073  RH  041%=      5-min Rain = 0
KAHS 050013Z 12003KT 21/08 A3004 RMK A01 T02090076  RH  042%=      5-min Rain = 0
KAHS 050014Z 10003KT 21/08 A3004 RMK A01 T02100076  RH  042%=      5-min Rain = 0
KAHS 050015Z 08004KT 21/07 A3004 RMK A01 T02090074  RH  042%=      5-min Rain = 0
KAHS 050016Z 08004KT 21/07 A3004 RMK A01 T02090074  RH  042%=      5-min Rain = 0
KAHS 050017Z 10004KT 21/08 A3004 RMK A01 T02090075  RH  042%=      5-min Rain = 0
KAHS 050018Z 11003KT 21/07 A3004 RMK A01 T02090074  RH  042%=      5-min Rain = 0
KAHS 050019Z 12003KT 21/08 A3004 RMK A01 T02090078  RH  043%=      5-min Rain = 0
KAHS 050020Z 09003KT 21/08 A3004 RMK A01 T02090077  RH  042%=      5-min Rain = 0
KAHS 050021Z 08003KT 21/07 A3004 RMK A01 T02090074  RH  042%=      5-min Rain = 0
KAHS 050022Z 08002KT 21/08 A3004 RMK A01 T02090075  RH  042%=      5-min Rain = 0
KAHS 050023Z 09003KT 21/08 A3004 RMK A01 T02090075  RH  042%=      5-min Rain = 0
KAHS 050024Z 09003KT 21/08 A3004 RMK A01 T02090078  RH  043%=      5-min Rain = 0
KAHS 050025Z 09004KT 21/08 A3004 RMK A01 T02100081  RH  044%=      5-min Rain = 0
KAHS 050026Z 08005KT 21/08 A3004 RMK A01 T02090075  RH  042%=      5-min Rain = 0
KAHS 050027Z 07005KT 21/08 A3005 RMK A01 T02080076  RH  042%=      5-min Rain = 0
KAHS 050028Z 05005KT 21/08 A3005 RMK A01 T02080080  RH  044%=      5-min Rain = 0
KAHS 050029Z 06003KT 21/08 A3005 RMK A01 T02080080  RH  044%=      5-min Rain = 0
KAHS 050030Z 08002KT 21/08 A3004 RMK A01 T02080082  RH  044%=      5-min Rain = 0
KAHS 050031Z 04003KT 21/08 A3004 RMK A01 T02090083  RH  044%=      5-min Rain = 0
KAHS 050032Z 01003KT 21/08 A3004 RMK A01 T02080076  RH  043%=      5-min Rain = 0
KAHS 050033Z 01003KT 21/08 A3004 RMK A01 T02080076  RH  042%=      5-min Rain = 0
KAHS 050034Z 01003KT 21/07 A3004 RMK A01 T02080073  RH  042%=      5-min Rain = 0
KAHS 050035Z 01002KT 21/08 A3004 RMK A01 T02080075  RH  042%=      5-min Rain = 0
KAHS 050036Z 03001KT 21/08 A3004 RMK A01 T02090075  RH  042%=      5-min Rain = 0
KAHS 050037Z 03000KT 21/08 A3005 RMK A01 T02100078  RH  043%=      5-min Rain = 0
KAHS 050038Z 04001KT 21/08 A3005 RMK A01 T02100078  RH  042%=      5-min Rain = 0
KAHS 050039Z 11002KT 21/08 A3005 RMK A01 T02100076  RH  042%=      5-min Rain = 0
KAHS 050040Z 09003KT 21/07 A3005 RMK A01 T02090074  RH  042%=      5-min Rain = 0
KAHS 050041Z 09002KT 21/07 A3005 RMK A01 T02080073  RH  042%=      5-min Rain = 0
KAHS 050042Z 10003KT 21/07 A3005 RMK A01 T02070071  RH  041%=      5-min Rain = 0
KAHS 050043Z 10003KT 21/08 A3005 RMK A01 T02070075  RH  042%=      5-min Rain = 0
KAHS 050044Z 11003KT 21/08 A3005 RMK A01 T02070078  RH  044%=      5-min Rain = 0
KAHS 050045Z 11003KT 21/08 A3005 RMK A01 T02060081  RH  044%=      5-min Rain = 0
KAHS 050046Z 09005KT 21/08 A3005 RMK A01 T02060078  RH  044%=      5-min Rain = 0
KAHS 050047Z 09004KT 21/08 A3005 RMK A01 T02050077  RH  043%=      5-min Rain = 0
KAHS 050048Z 08004KT 20/08 A3005 RMK A01 T02040078  RH  044%=      5-min Rain = 0
KAHS 050049Z 08003KT 20/08 A3005 RMK A01 T02040075  RH  043%=      5-min Rain = 0
KAHS 050050Z 08002KT 20/08 A3005 RMK A01 T02040078  RH  044%=      5-min Rain = 0
KAHS 050051Z 11002KT 20/08 A3005 RMK A01 T02040080  RH  045%=      5-min Rain = 0
KAHS 050052Z 10002KT 20/08 A3005 RMK A01 T02040078  RH  044%=      5-min Rain = 0
KAHS 050053Z 11002KT 20/08 A3005 RMK A01 T02040079  RH  044%=      5-min Rain = 0
KAHS 050054Z 10002KT 20/08 A3005 RMK A01 T02040081  RH  045%=      5-min Rain = 0
KAHS 050055Z 08002KT 20/08 A3005 RMK A01 T02040081  RH  045%=      5-min Rain = 0
KAHS 050056Z 08002KT 20/08 A3005 RMK A01 T02030083  RH  046%=      5-min Rain = 0
KAHS 050057Z 08003KT 20/08 A3005 RMK A01 T02030083  RH  046%=      5-min Rain = 0
KAHS 050058Z 08003KT 20/08 A3005 RMK A01 T02020075  RH  044%=      5-min Rain = 0
KAHS 050059Z 08003KT 20/08 A3005 RMK A01 T02020079  RH  045%=      5-min Rain = 0
KAHS 050100Z 09003KT 20/08 A3005 RMK A01 T02010082  RH  046%=      5-min Rain = 0
KAHS 050101Z 10003KT 20/08 A3005 RMK A01 T02010084  RH  047%=      5-min Rain = 0
KAHS 050102Z 10003KT 20/09 A3005 RMK A01 T02000085  RH  047%=      5-min Rain = 0
KAHS 050103Z 09003KT 20/09 A3005 RMK A01 T01990085  RH  048%=      5-min Rain = 0
KAHS 050104Z 09003KT 20/09 A3005 RMK A01 T01980085  RH  048%=      5-min Rain = 0
KAHS 050105Z 09003KT 20/09 A3005 RMK A01 T01980085  RH  048%=      5-min Rain = 0
KAHS 050106Z 09002KT 20/09 A3005 RMK A01 T01970086  RH  048%=      5-min Rain = 0
KAHS 050107Z 10003KT 20/09 A3005 RMK A01 T01970085  RH  048%=      5-min Rain = 0
KAHS 050108Z 10003KT 20/09 A3005 RMK A01 T01970086  RH  049%=      5-min Rain = 0
KAHS 050109Z 10003KT 20/09 A3005 RMK A01 T01960087  RH  049%=      5-min Rain = 0
KAHS 050110Z 11003KT 20/09 A3005 RMK A01 T01950086  RH  049%=      5-min Rain = 0
KAHS 050111Z 11003KT 20/08 A3005 RMK A01 T01950082  RH  048%=      5-min Rain = 0
KAHS 050112Z 10003KT 19/08 A3005 RMK A01 T01940083  RH  048%=      5-min Rain = 0
KAHS 050113Z 11003KT 19/08 A3005 RMK A01 T01940082  RH  048%=      5-min Rain = 0
KAHS 050114Z 11003KT 19/08 A3005 RMK A01 T01930082  RH  048%=      5-min Rain = 0
KAHS 050115Z 11002KT 19/08 A3005 RMK A01 T01930083  RH  049%=      5-min Rain = 0
KAHS 050116Z 12002KT 19/08 A3005 RMK A01 T01930083  RH  049%=      5-min Rain = 0
KAHS 050117Z 11002KT 19/08 A3005 RMK A01 T01920084  RH  050%=      5-min Rain = 0
KAHS 050118Z 11003KT 19/08 A3005 RMK A01 T01910084  RH  050%=      5-min Rain = 0
KAHS 050119Z 11003KT 19/08 A3006 RMK A01 T01910084  RH  050%=      5-min Rain = 0
KAHS 050120Z 11003KT 19/08 A3006 RMK A01 T01900082  RH  049%=      5-min Rain = 0
KAHS 050121Z 11003KT 19/08 A3006 RMK A01 T01890082  RH  050%=      5-min Rain = 0
KAHS 050122Z 11003KT 19/08 A3006 RMK A01 T01880082  RH  050%=      5-min Rain = 0
KAHS 050123Z 11003KT 19/08 A3006 RMK A01 T01880082  RH  050%=      5-min Rain = 0
KAHS 050124Z 11004KT 19/08 A3006 RMK A01 T01870081  RH  050%=      5-min Rain = 0
KAHS 050125Z 11004KT 19/08 A3006 RMK A01 T01870079  RH  050%=      5-min Rain = 0
KAHS 050126Z 11004KT 19/08 A3006 RMK A01 T01870079  RH  049%=      5-min Rain = 0
KAHS 050127Z 10004KT 19/08 A3006 RMK A01 T01870081  RH  050%=      5-min Rain = 0
KAHS 050128Z 10004KT 19/08 A3006 RMK A01 T01850081  RH  051%=      5-min Rain = 0
KAHS 050129Z 10004KT 19/08 A3006 RMK A01 T01850082  RH  051%=      5-min Rain = 0
KAHS 050130Z 09004KT 18/08 A3006 RMK A01 T01840083  RH  052%=      5-min Rain = 0
KAHS 050131Z 09003KT 18/08 A3006 RMK A01 T01830083  RH  052%=      5-min Rain = 0
KAHS 050132Z 09003KT 18/08 A3006 RMK A01 T01830083  RH  052%=      5-min Rain = 0
KAHS 050133Z 09003KT 18/08 A3006 RMK A01 T01820082  RH  052%=      5-min Rain = 0
KAHS 050134Z 09003KT 18/08 A3006 RMK A01 T01820081  RH  051%=      5-min Rain = 0
KAHS 050135Z 09003KT 18/08 A3006 RMK A01 T01820082  RH  052%=      5-min Rain = 0
KAHS 050136Z 09003KT 18/08 A3006 RMK A01 T01820082  RH  052%=      5-min Rain = 0
KAHS 050137Z 09003KT 18/08 A3006 RMK A01 T01810082  RH  052%=      5-min Rain = 0
KAHS 050138Z 09003KT 18/08 A3006 RMK A01 T01810082  RH  052%=      5-min Rain = 0
KAHS 050139Z 09003KT 18/08 A3006 RMK A01 T01800083  RH  053%=      5-min Rain = 0
KAHS 050140Z 09003KT 18/08 A3006 RMK A01 T01800084  RH  054%=      5-min Rain = 0
KAHS 050141Z 09002KT 18/09 A3006 RMK A01 T01790085  RH  054%=      5-min Rain = 0
KAHS 050142Z 09002KT 18/09 A3006 RMK A01 T01780085  RH  054%=      5-min Rain = 0
KAHS 050143Z 08002KT 18/09 A3007 RMK A01 T01780085  RH  054%=      5-min Rain = 0
KAHS 050144Z 08002KT 18/08 A3007 RMK A01 T01780084  RH  054%=      5-min Rain = 0
KAHS 050145Z 07002KT 18/08 A3007 RMK A01 T01770084  RH  054%=      5-min Rain = 0
KAHS 050146Z 07002KT 18/08 A3007 RMK A01 T01770084  RH  054%=      5-min Rain = 0
KAHS 050147Z 07002KT 18/08 A3007 RMK A01 T01770084  RH  054%=      5-min Rain = 0
KAHS 050148Z 07002KT 18/08 A3007 RMK A01 T01770083  RH  054%=      5-min Rain = 0
KAHS 050149Z 07002KT 18/08 A3007 RMK A01 T01770083  RH  054%=      5-min Rain = 0
KAHS 050150Z 07002KT 18/08 A3007 RMK A01 T01770083  RH  054%=      5-min Rain = 0
KAHS 050151Z 07002KT 18/08 A3007 RMK A01 T01760083  RH  054%=      5-min Rain = 0
KAHS 050152Z 07002KT 18/08 A3007 RMK A01 T01760082  RH  054%=      5-min Rain = 0
KAHS 050153Z 08002KT 18/08 A3007 RMK A01 T01750081  RH  054%=      5-min Rain = 0
KAHS 050154Z 08002KT 18/08 A3007 RMK A01 T01760080  RH  053%=      5-min Rain = 0
KAHS 050155Z 08002KT 18/08 A3007 RMK A01 T01760079  RH  053%=      5-min Rain = 0
KAHS 050156Z 08002KT 18/08 A3007 RMK A01 T01760079  RH  053%=      5-min Rain = 0
KAHS 050157Z 08002KT 18/08 A3007 RMK A01 T01760079  RH  053%=      5-min Rain = 0
KAHS 050158Z 09002KT 18/08 A3007 RMK A01 T01760079  RH  053%=      5-min Rain = 0
KAHS 050159Z 09002KT 18/08 A3007 RMK A01 T01760079  RH  053%=      5-min Rain = 0
KAHS 050200Z 09002KT 18/08 A3007 RMK A01 T01760079  RH  053%=      5-min Rain = 0
KAHS 050201Z 09002KT 18/08 A3007 RMK A01 T01750079  RH  053%=      5-min Rain = 0
KAHS 050202Z 09002KT 18/08 A3008 RMK A01 T01750080  RH  053%=      5-min Rain = 0
KAHS 050203Z 09002KT 18/08 A3008 RMK A01 T01750080  RH  054%=      5-min Rain = 0
KAHS 050204Z 10002KT 17/08 A3008 RMK A01 T01740082  RH  055%=      5-min Rain = 0
KAHS 050205Z 10002KT 17/09 A3008 RMK A01 T01730085  RH  056%=      5-min Rain = 0
KAHS 050206Z 10002KT 17/08 A3008 RMK A01 T01720084  RH  056%=      5-min Rain = 0
KAHS 050207Z 10002KT 17/08 A3008 RMK A01 T01710082  RH  055%=      5-min Rain = 0
KAHS 050208Z 10001KT 17/08 A3008 RMK A01 T01710082  RH  056%=      5-min Rain = 0
KAHS 050209Z 09002KT 17/08 A3008 RMK A01 T01700083  RH  056%=      5-min Rain = 0
KAHS 050210Z 09002KT 17/08 A3008 RMK A01 T01700082  RH  056%=      5-min Rain = 0
KAHS 050211Z 09002KT 17/08 A3008 RMK A01 T01700081  RH  056%=      5-min Rain = 0
KAHS 050212Z 09002KT 17/08 A3008 RMK A01 T01690081  RH  056%=      5-min Rain = 0
KAHS 050213Z 09002KT 17/08 A3008 RMK A01 T01690080  RH  056%=      5-min Rain = 0
KAHS 050214Z 09002KT 17/08 A3008 RMK A01 T01680081  RH  056%=      5-min Rain = 0
KAHS 050215Z 09002KT 17/08 A3008 RMK A01 T01670083  RH  057%=      5-min Rain = 0
KAHS 050216Z 09001KT 17/08 A3008 RMK A01 T01660083  RH  058%=      5-min Rain = 0
KAHS 050217Z 09001KT 17/09 A3008 RMK A01 T01650088  RH  060%=      5-min Rain = 0
KAHS 050218Z 10001KT 16/09 A3008 RMK A01 T01640093  RH  063%=      5-min Rain = 0
KAHS 050219Z 10001KT 16/10 A3008 RMK A01 T01620097  RH  065%=      5-min Rain = 0
KAHS 050220Z 10001KT 16/10 A3008 RMK A01 T01600098  RH  067%=      5-min Rain = 0
KAHS 050221Z 10001KT 16/09 A3008 RMK A01 T01570094  RH  066%=      5-min Rain = 0
KAHS 050222Z 10001KT 16/09 A3008 RMK A01 T01560089  RH  064%=      5-min Rain = 0
KAHS 050223Z 10001KT 16/09 A3008 RMK A01 T01570085  RH  062%=      5-min Rain = 0
KAHS 050224Z 10001KT 16/08 A3008 RMK A01 T01580083  RH  061%=      5-min Rain = 0
KAHS 050225Z 10001KT 16/08 A3008 RMK A01 T01590084  RH  061%=      5-min Rain = 0
KAHS 050226Z 10001KT 16/08 A3008 RMK A01 T01590084  RH  061%=      5-min Rain = 0
KAHS 050227Z 10001KT 16/08 A3008 RMK A01 T01600084  RH  061%=      5-min Rain = 0
KAHS 050228Z 10001KT 16/08 A3009 RMK A01 T01600083  RH  060%=      5-min Rain = 0
KAHS 050229Z 10001KT 16/08 A3009 RMK A01 T01610083  RH  060%=      5-min Rain = 0
KAHS 050230Z 10001KT 16/08 A3009 RMK A01 T01610082  RH  059%=      5-min Rain = 0
KAHS 050231Z 10001KT 16/08 A3009 RMK A01 T01620082  RH  059%=      5-min Rain = 0
KAHS 050232Z 10001KT 16/09 A3009 RMK A01 T01600086  RH  061%=      5-min Rain = 0
KAHS 050233Z 10001KT 16/08 A3009 RMK A01 T01600083  RH  060%=      5-min Rain = 0
KAHS 050234Z 10001KT 16/09 A3009 RMK A01 T01600086  RH  062%=      5-min Rain = 0
KAHS 050235Z 10001KT 16/08 A3009 RMK A01 T01590084  RH  061%=      5-min Rain = 0
KAHS 050236Z 10001KT 16/08 A3009 RMK A01 T01590082  RH  060%=      5-min Rain = 0
KAHS 050237Z 10001KT 16/08 A3009 RMK A01 T01600082  RH  060%=      5-min Rain = 0
KAHS 050238Z 10001KT 16/08 A3009 RMK A01 T01600084  RH  060%=      5-min Rain = 0
KAHS 050239Z 10001KT 16/08 A3009 RMK A01 T01600084  RH  060%=      5-min Rain = 0
KAHS 050240Z 09001KT 16/08 A3009 RMK A01 T01610083  RH  060%=      5-min Rain = 0
KAHS 050241Z 08002KT 16/08 A3009 RMK A01 T01610083  RH  060%=      5-min Rain = 0
KAHS 050242Z 08001KT 16/08 A3009 RMK A01 T01620083  RH  060%=      5-min Rain = 0
KAHS 050243Z 09001KT 16/08 A3009 RMK A01 T01630083  RH  059%=      5-min Rain = 0
KAHS 050244Z 09001KT 16/08 A3009 RMK A01 T01630082  RH  059%=      5-min Rain = 0
KAHS 050245Z 09002KT 16/08 A3009 RMK A01 T01640082  RH  058%=      5-min Rain = 0
KAHS 050246Z 08002KT 17/08 A3009 RMK A01 T01650083  RH  058%=      5-min Rain = 0
KAHS 050247Z 09002KT 17/08 A3009 RMK A01 T01650083  RH  058%=      5-min Rain = 0
KAHS 050248Z 09002KT 16/08 A3009 RMK A01 T01640082  RH  058%=      5-min Rain = 0
KAHS 050249Z 09002KT 16/08 A3009 RMK A01 T01640082  RH  058%=      5-min Rain = 0
KAHS 050250Z 09002KT 16/08 A3009 RMK A01 T01640083  RH  059%=      5-min Rain = 0
KAHS 050251Z 08003KT 16/08 A3009 RMK A01 T01640083  RH  059%=      5-min Rain = 0
KAHS 050252Z 08003KT 16/08 A3009 RMK A01 T01640083  RH  059%=      5-min Rain = 0
KAHS 050253Z 09003KT 16/08 A3009 RMK A01 T01640083  RH  059%=      5-min Rain = 0
KAHS 050254Z 09003KT 16/08 A3009 RMK A01 T01630084  RH  059%=      5-min Rain = 0
KAHS 050255Z 09002KT 16/08 A301 RMK A01 T01620084  RH  060%=      5-min Rain = 0
KAHS 050256Z 09002KT 16/09 A301 RMK A01 T01620085  RH  060%=      5-min Rain = 0
KAHS 050257Z 09002KT 16/09 A301 RMK A01 T01600085  RH  061%=      5-min Rain = 0
KAHS 050258Z 09002KT 16/09 A301 RMK A01 T01600085  RH  061%=      5-min Rain = 0
KAHS 050259Z 10002KT 16/09 A301 RMK A01 T01590085  RH  061%=      5-min Rain = 0
KAHS 050300Z 10002KT 16/09 A301 RMK A01 T01580086  RH  062%=      5-min Rain = 0
KAHS 050301Z 10002KT 16/09 A301 RMK A01 T01570087  RH  063%=      5-min Rain = 0
KAHS 050302Z 10002KT 16/09 A301 RMK A01 T01560087  RH  064%=      5-min Rain = 0
KAHS 050303Z 10003KT 16/09 A301 RMK A01 T01550087  RH  064%=      5-min Rain = 0
KAHS 050304Z 10003KT 16/09 A301 RMK A01 T01550085  RH  063%=      5-min Rain = 0
KAHS 050305Z 10003KT 16/08 A301 RMK A01 T01550084  RH  063%=      5-min Rain = 0
KAHS 050306Z 10003KT 16/08 A301 RMK A01 T01560084  RH  062%=      5-min Rain = 0
KAHS 050307Z 10003KT 16/08 A301 RMK A01 T01560084  RH  062%=      5-min Rain = 0
KAHS 050308Z 10003KT 16/09 A301 RMK A01 T01560085  RH  062%=      5-min Rain = 0
KAHS 050309Z 10003KT 16/09 A301 RMK A01 T01570085  RH  062%=      5-min Rain = 0
KAHS 050310Z 10003KT 16/09 A301 RMK A01 T01560085  RH  063%=      5-min Rain = 0
KAHS 050311Z 09003KT 16/09 A301 RMK A01 T01560086  RH  063%=      5-min Rain = 0
KAHS 050312Z 09003KT 16/09 A301 RMK A01 T01560086  RH  063%=      5-min Rain = 0
KAHS 050313Z 09003KT 16/09 A301 RMK A01 T01560086  RH  063%=      5-min Rain = 0
KAHS 050314Z 09003KT 16/09 A301 RMK A01 T01560086  RH  063%=      5-min Rain = 0
KAHS 050315Z 09003KT 16/09 A301 RMK A01 T01550086  RH  064%=      5-min Rain = 0
KAHS 050316Z 09003KT 16/09 A301 RMK A01 T01550086  RH  063%=      5-min Rain = 0
KAHS 050317Z 09003KT 16/09 A301 RMK A01 T01550086  RH  063%=      5-min Rain = 0
KAHS 050318Z 09003KT 16/09 A301 RMK A01 T01550085  RH  063%=      5-min Rain = 0
KAHS 050319Z 09003KT 16/09 A301 RMK A01 T01550085  RH  063%=      5-min Rain = 0
KAHS 050320Z 09003KT 16/09 A301 RMK A01 T01560086  RH  063%=      5-min Rain = 0
KAHS 050321Z 09003KT 16/09 A301 RMK A01 T01550085  RH  063%=      5-min Rain = 0
KAHS 050322Z 09003KT 16/09 A301 RMK A01 T01560085  RH  063%=      5-min Rain = 0
KAHS 050323Z 09003KT 16/09 A301 RMK A01 T01560085  RH  063%=      5-min Rain = 0
KAHS 050324Z 09003KT 16/09 A301 RMK A01 T01560085  RH  062%=      5-min Rain = 0
KAHS 050325Z 09003KT 16/09 A301 RMK A01 T01560086  RH  063%=      5-min Rain = 0
KAHS 050326Z 09003KT 16/09 A301 RMK A01 T01560087  RH  063%=      5-min Rain = 0
KAHS 050327Z 09003KT 16/09 A301 RMK A01 T01560087  RH  064%=      5-min Rain = 0
KAHS 050328Z 09003KT 16/09 A301 RMK A01 T01550087  RH  064%=      5-min Rain = 0
KAHS 050329Z 09003KT 16/09 A301 RMK A01 T01550087  RH  064%=      5-min Rain = 0
KAHS 050330Z 09003KT 15/09 A301 RMK A01 T01540088  RH  065%=      5-min Rain = 0
KAHS 050331Z 09003KT 15/09 A301 RMK A01 T01540091  RH  066%=      5-min Rain = 0
KAHS 050332Z 09003KT 15/10 A301 RMK A01 T01530098  RH  070%=      5-min Rain = 0
KAHS 050333Z 09002KT 15/10 A301 RMK A01 T01510101  RH  072%=      5-min Rain = 0
KAHS 050334Z 09002KT 15/10 A301 RMK A01 T01490101  RH  073%=      5-min Rain = 0
KAHS 050335Z 10002KT 15/10 A301 RMK A01 T01460101  RH  074%=      5-min Rain = 0
KAHS 050336Z 10002KT 14/10 A301 RMK A01 T01430099  RH  075%=      5-min Rain = 0
KAHS 050337Z 10002KT 14/10 A301 RMK A01 T01420100  RH  076%=      5-min Rain = 0
KAHS 050338Z 10002KT 14/10 A301 RMK A01 T01410101  RH  076%=      5-min Rain = 0
KAHS 050339Z 10002KT 14/10 A301 RMK A01 T01410099  RH  076%=      5-min Rain = 0
KAHS 050340Z 10002KT 14/10 A301 RMK A01 T01400098  RH  076%=      5-min Rain = 0
KAHS 050341Z 10002KT 14/10 A301 RMK A01 T01390095  RH  075%=      5-min Rain = 0
KAHS 050342Z 10002KT 14/09 A301 RMK A01 T01380092  RH  074%=      5-min Rain = 0
KAHS 050343Z 10002KT 14/09 A3011 RMK A01 T01370090  RH  073%=      5-min Rain = 0
KAHS 050344Z 10002KT 14/09 A3011 RMK A01 T01380090  RH  073%=      5-min Rain = 0
KAHS 050345Z 11002KT 14/09 A3011 RMK A01 T01380090  RH  073%=      5-min Rain = 0
KAHS 050346Z 12002KT 14/09 A3011 RMK A01 T01370090  RH  073%=      5-min Rain = 0
KAHS 050347Z 13001KT 14/09 A3011 RMK A01 T01360092  RH  075%=      5-min Rain = 0
KAHS 050348Z 13001KT 13/09 A3011 RMK A01 T01340092  RH  075%=      5-min Rain = 0
KAHS 050349Z 13002KT 13/09 A3011 RMK A01 T01340091  RH  075%=      5-min Rain = 0
KAHS 050350Z 13002KT 13/09 A3011 RMK A01 T01340089  RH  075%=      5-min Rain = 0
KAHS 050351Z 13002KT 13/09 A3011 RMK A01 T01340087  RH  074%=      5-min Rain = 0
KAHS 050352Z 13002KT 13/09 A3011 RMK A01 T01340087  RH  073%=      5-min Rain = 0
KAHS 050353Z 13002KT 14/09 A3011 RMK A01 T01350087  RH  072%=      5-min Rain = 0
KAHS 050354Z 13002KT 14/09 A3011 RMK A01 T01360087  RH  072%=      5-min Rain = 0
KAHS 050355Z 13002KT 14/09 A3011 RMK A01 T01370087  RH  071%=      5-min Rain = 0
KAHS 050356Z 12002KT 14/09 A3011 RMK A01 T01380086  RH  071%=      5-min Rain = 0
KAHS 050357Z 12002KT 14/09 A3011 RMK A01 T01400086  RH  070%=      5-min Rain = 0
KAHS 050358Z 11002KT 14/09 A3011 RMK A01 T01420086  RH  069%=      5-min Rain = 0
KAHS 050359Z 11002KT 14/09 A3011 RMK A01 T01430086  RH  068%=      5-min Rain = 0
KAHS 050400Z 11002KT 14/09 A3011 RMK A01 T01440086  RH  068%=      5-min Rain = 0
KAHS 050401Z 11003KT 15/09 A3011 RMK A01 T01450086  RH  068%=      5-min Rain = 0
KAHS 050402Z 11002KT 15/09 A3011 RMK A01 T01450086  RH  067%=      5-min Rain = 0
KAHS 050403Z 11003KT 15/09 A3011 RMK A01 T01460087  RH  068%=      5-min Rain = 0
KAHS 050404Z 13003KT 15/09 A3011 RMK A01 T01450090  RH  069%=      5-min Rain = 0
KAHS 050405Z 14003KT 14/10 A3011 RMK A01 T01440095  RH  072%=      5-min Rain = 0
KAHS 050406Z 13003KT 14/10 A3011 RMK A01 T01440098  RH  074%=      5-min Rain = 0
KAHS 050407Z 12002KT 14/10 A3011 RMK A01 T01420098  RH  075%=      5-min Rain = 0
KAHS 050408Z 12002KT 14/10 A3011 RMK A01 T01410096  RH  074%=      5-min Rain = 0
KAHS 050409Z 11002KT 14/10 A3011 RMK A01 T01400095  RH  074%=      5-min Rain = 0
KAHS 050410Z 11002KT 14/09 A3011 RMK A01 T01400093  RH  073%=      5-min Rain = 0
KAHS 050411Z 10002KT 14/09 A3011 RMK A01 T01410093  RH  073%=      5-min Rain = 0
KAHS 050412Z 09002KT 14/09 A3011 RMK A01 T01410093  RH  073%=      5-min Rain = 0
KAHS 050413Z 09003KT 14/09 A3011 RMK A01 T01410092  RH  072%=      5-min Rain = 0
KAHS 050414Z 10003KT 14/09 A3011 RMK A01 T01420092  RH  071%=      5-min Rain = 0
KAHS 050415Z 10003KT 14/09 A3011 RMK A01 T01430091  RH  071%=      5-min Rain = 0
KAHS 050416Z 10003KT 14/09 A3011 RMK A01 T01430091  RH  071%=      5-min Rain = 0
KAHS 050417Z 10003KT 14/09 A3011 RMK A01 T01430090  RH  071%=      5-min Rain = 0
KAHS 050418Z 09003KT 14/09 A3011 RMK A01 T01430090  RH  071%=      5-min Rain = 0
KAHS 050419Z 09003KT 14/09 A3011 RMK A01 T01430090  RH  070%=      5-min Rain = 0
KAHS 050420Z 09002KT 14/09 A3011 RMK A01 T01430089  RH  070%=      5-min Rain = 0
KAHS 050421Z 08003KT 14/09 A3011 RMK A01 T01420088  RH  070%=      5-min Rain = 0
KAHS 050422Z 08002KT 14/09 A3011 RMK A01 T01410087  RH  070%=      5-min Rain = 0
KAHS 050423Z 08002KT 14/09 A3011 RMK A01 T01420087  RH  070%=      5-min Rain = 0
KAHS 050424Z 08003KT 14/09 A3011 RMK A01 T01410087  RH  070%=      5-min Rain = 0
KAHS 050425Z 07002KT 14/09 A3011 RMK A01 T01410087  RH  070%=      5-min Rain = 0
KAHS 050426Z 07003KT 14/09 A3011 RMK A01 T01410086  RH  070%=      5-min Rain = 0
KAHS 050427Z 07003KT 14/09 A3011 RMK A01 T01410086  RH  070%=      5-min Rain = 0
KAHS 050428Z 07003KT 14/09 A3011 RMK A01 T01410086  RH  069%=      5-min Rain = 0
KAHS 050429Z 06004KT 14/09 A3011 RMK A01 T01420086  RH  069%=      5-min Rain = 0
KAHS 050430Z 07004KT 14/09 A3011 RMK A01 T01410086  RH  070%=      5-min Rain = 0
KAHS 050431Z 07004KT 14/09 A3011 RMK A01 T01410086  RH  070%=      5-min Rain = 0
KAHS 050432Z 07004KT 14/09 A3011 RMK A01 T01410086  RH  069%=      5-min Rain = 0
KAHS 050433Z 08003KT 14/09 A3011 RMK A01 T01420086  RH  069%=      5-min Rain = 0
KAHS 050434Z 08003KT 14/09 A3011 RMK A01 T01420086  RH  069%=      5-min Rain = 0
KAHS 050435Z 08003KT 14/09 A3011 RMK A01 T01420087  RH  069%=      5-min Rain = 0
KAHS 050436Z 08003KT 14/09 A3011 RMK A01 T01420087  RH  070%=      5-min Rain = 0
KAHS 050437Z 07003KT 14/09 A3011 RMK A01 T01410087  RH  070%=      5-min Rain = 0
KAHS 050438Z 07003KT 14/09 A3012 RMK A01 T01400086  RH  070%=      5-min Rain = 0
KAHS 050439Z 07003KT 14/09 A3012 RMK A01 T01400086  RH  070%=      5-min Rain = 0
KAHS 050440Z 07003KT 14/09 A3012 RMK A01 T01400086  RH  070%=      5-min Rain = 0
KAHS 050441Z 07003KT 14/09 A3012 RMK A01 T01390085  RH  070%=      5-min Rain = 0
KAHS 050442Z 08002KT 14/09 A3012 RMK A01 T01390085  RH  070%=      5-min Rain = 0
KAHS 050443Z 08002KT 14/09 A3012 RMK A01 T01390087  RH  071%=      5-min Rain = 0
KAHS 050444Z 09002KT 14/09 A3012 RMK A01 T01350087  RH  073%=      5-min Rain = 0
KAHS 050445Z 10002KT 13/09 A3012 RMK A01 T01330086  RH  074%=      5-min Rain = 0
KAHS 050446Z 10003KT 13/09 A3012 RMK A01 T01300085  RH  074%=      5-min Rain = 0
KAHS 050447Z 11003KT 13/09 A3012 RMK A01 T01290085  RH  075%=      5-min Rain = 0
KAHS 050448Z 11004KT 13/09 A3012 RMK A01 T01290086  RH  075%=      5-min Rain = 0
KAHS 050449Z 11003KT 13/09 A3012 RMK A01 T01280089  RH  077%=      5-min Rain = 0
KAHS 050450Z 11002KT 13/09 A3012 RMK A01 T01270092  RH  079%=      5-min Rain = 0
KAHS 050451Z 10003KT 13/09 A3012 RMK A01 T01260094  RH  081%=      5-min Rain = 0
KAHS 050452Z 10003KT 13/09 A3012 RMK A01 T01250094  RH  081%=      5-min Rain = 0
KAHS 050453Z 10003KT 12/09 A3012 RMK A01 T01240093  RH  082%=      5-min Rain = 0
KAHS 050454Z 10003KT 12/09 A3012 RMK A01 T01230093  RH  082%=      5-min Rain = 0
KAHS 050455Z 11003KT 12/09 A3012 RMK A01 T01230094  RH  083%=      5-min Rain = 0
KAHS 050456Z 10003KT 12/10 A3012 RMK A01 T01220095  RH  083%=      5-min Rain = 0
KAHS 050457Z 10003KT 12/10 A3012 RMK A01 T01220095  RH  084%=      5-min Rain = 0
KAHS 050458Z 10002KT 12/10 A3012 RMK A01 T01210095  RH  084%=      5-min Rain = 0
KAHS 050459Z 10002KT 12/10 A3012 RMK A01 T01210095  RH  084%=      5-min Rain = 0

Page generated in 0.078 seconds.